<?xml version='1.0' encoding='UTF-8'?>
<gpx version="1.1" creator="https://www.komoot.de" xmlns="http://www.topografix.com/GPX/1/1" xmlns:xsi="http://www.w3.org/2001/XMLSchema-instance" xsi:schemaLocation="http://www.topografix.com/GPX/1/1 http://www.topografix.com/GPX/1/1/gpx.xsd">
  <metadata>
    <name>GRAVEL PETIT PARCOURS VCN Sortie du 17-01-2025</name>
    <author>
      <link href="https://www.komoot.de">
        <text>komoot</text>
        <type>text/html</type>
      </link>
    </author>
  </metadata>
  <trk>
    <name>GRAVEL PETIT PARCOURS VCN Sortie du 17-01-2025</name>
    <trkseg>
      <trkpt lat="48.884357" lon="2.269394">
        <ele>40.253681</ele>
        <time>2025-01-15T08:32:24.424Z</time>
      </trkpt>
      <trkpt lat="48.884439" lon="2.269026">
        <ele>40.253681</ele>
        <time>2025-01-15T08:32:30.891Z</time>
      </trkpt>
      <trkpt lat="48.884462" lon="2.268923">
        <ele>40.253681</ele>
        <time>2025-01-15T08:32:32.463Z</time>
      </trkpt>
      <trkpt lat="48.884560" lon="2.268487">
        <ele>40.253681</ele>
        <time>2025-01-15T08:32:40.367Z</time>
      </trkpt>
      <trkpt lat="48.884586" lon="2.268373">
        <ele>40.253681</ele>
        <time>2025-01-15T08:32:42.724Z</time>
      </trkpt>
      <trkpt lat="48.884663" lon="2.268043">
        <ele>40.257535</ele>
        <time>2025-01-15T08:32:48.335Z</time>
      </trkpt>
      <trkpt lat="48.884795" lon="2.267467">
        <ele>40.295887</ele>
        <time>2025-01-15T08:32:58.940Z</time>
      </trkpt>
      <trkpt lat="48.884959" lon="2.266741">
        <ele>40.344153</ele>
        <time>2025-01-15T08:33:12.856Z</time>
      </trkpt>
      <trkpt lat="48.884904" lon="2.266710">
        <ele>40.349761</ele>
        <time>2025-01-15T08:33:14.177Z</time>
      </trkpt>
      <trkpt lat="48.884850" lon="2.266678">
        <ele>40.355303</ele>
        <time>2025-01-15T08:33:15.577Z</time>
      </trkpt>
      <trkpt lat="48.883946" lon="2.265544">
        <ele>39.811246</ele>
        <time>2025-01-15T08:33:39.074Z</time>
      </trkpt>
      <trkpt lat="48.883554" lon="2.265172">
        <ele>39.160148</ele>
        <time>2025-01-15T08:33:47.964Z</time>
      </trkpt>
      <trkpt lat="48.883371" lon="2.265002">
        <ele>38.857975</ele>
        <time>2025-01-15T08:33:51.993Z</time>
      </trkpt>
      <trkpt lat="48.883463" lon="2.264914">
        <ele>38.704825</ele>
        <time>2025-01-15T08:33:53.957Z</time>
      </trkpt>
      <trkpt lat="48.883526" lon="2.264769">
        <ele>38.543787</ele>
        <time>2025-01-15T08:33:56.041Z</time>
      </trkpt>
      <trkpt lat="48.883600" lon="2.264698">
        <ele>38.420493</ele>
        <time>2025-01-15T08:33:57.663Z</time>
      </trkpt>
      <trkpt lat="48.883739" lon="2.264516">
        <ele>38.162029</ele>
        <time>2025-01-15T08:34:01.105Z</time>
      </trkpt>
      <trkpt lat="48.883823" lon="2.264225">
        <ele>37.876100</ele>
        <time>2025-01-15T08:34:05.079Z</time>
      </trkpt>
      <trkpt lat="48.883850" lon="2.264033">
        <ele>37.759980</ele>
        <time>2025-01-15T08:34:07.721Z</time>
      </trkpt>
      <trkpt lat="48.884179" lon="2.263000">
        <ele>37.081157</ele>
        <time>2025-01-15T08:34:24.260Z</time>
      </trkpt>
      <trkpt lat="48.884284" lon="2.262779">
        <ele>36.919908</ele>
        <time>2025-01-15T08:34:28.042Z</time>
      </trkpt>
      <trkpt lat="48.884330" lon="2.262609">
        <ele>36.811188</ele>
        <time>2025-01-15T08:34:30.635Z</time>
      </trkpt>
      <trkpt lat="48.884387" lon="2.262421">
        <ele>36.688752</ele>
        <time>2025-01-15T08:34:33.578Z</time>
      </trkpt>
      <trkpt lat="48.884404" lon="2.262366">
        <ele>36.652810</ele>
        <time>2025-01-15T08:34:34.409Z</time>
      </trkpt>
      <trkpt lat="48.884424" lon="2.262302">
        <ele>36.610903</ele>
        <time>2025-01-15T08:34:35.344Z</time>
      </trkpt>
      <trkpt lat="48.884460" lon="2.262181">
        <ele>36.532358</ele>
        <time>2025-01-15T08:34:37.090Z</time>
      </trkpt>
      <trkpt lat="48.884854" lon="2.260946">
        <ele>35.719958</ele>
        <time>2025-01-15T08:34:55.029Z</time>
      </trkpt>
      <trkpt lat="48.884959" lon="2.260633">
        <ele>35.511931</ele>
        <time>2025-01-15T08:34:59.623Z</time>
      </trkpt>
      <trkpt lat="48.885073" lon="2.260336">
        <ele>35.308333</ele>
        <time>2025-01-15T08:35:04.403Z</time>
      </trkpt>
      <trkpt lat="48.885387" lon="2.259349">
        <ele>34.659205</ele>
        <time>2025-01-15T08:35:18.990Z</time>
      </trkpt>
      <trkpt lat="48.885444" lon="2.259174">
        <ele>34.615809</ele>
        <time>2025-01-15T08:35:21.853Z</time>
      </trkpt>
      <trkpt lat="48.885616" lon="2.258636">
        <ele>34.493006</ele>
        <time>2025-01-15T08:35:32.282Z</time>
      </trkpt>
      <trkpt lat="48.885701" lon="2.258348">
        <ele>34.428204</ele>
        <time>2025-01-15T08:35:37.397Z</time>
      </trkpt>
      <trkpt lat="48.885778" lon="2.258106">
        <ele>34.373016</ele>
        <time>2025-01-15T08:35:41.726Z</time>
      </trkpt>
      <trkpt lat="48.885978" lon="2.257458">
        <ele>34.226070</ele>
        <time>2025-01-15T08:35:51.988Z</time>
      </trkpt>
      <trkpt lat="48.886033" lon="2.257441">
        <ele>34.208549</ele>
        <time>2025-01-15T08:35:53.165Z</time>
      </trkpt>
      <trkpt lat="48.886090" lon="2.257366">
        <ele>34.185018</ele>
        <time>2025-01-15T08:35:54.653Z</time>
      </trkpt>
      <trkpt lat="48.886302" lon="2.256708">
        <ele>33.908771</ele>
        <time>2025-01-15T08:36:04.840Z</time>
      </trkpt>
      <trkpt lat="48.886342" lon="2.256566">
        <ele>33.808303</ele>
        <time>2025-01-15T08:36:06.919Z</time>
      </trkpt>
      <trkpt lat="48.886328" lon="2.256480">
        <ele>33.750683</ele>
        <time>2025-01-15T08:36:08.089Z</time>
      </trkpt>
      <trkpt lat="48.886296" lon="2.256225">
        <ele>33.581848</ele>
        <time>2025-01-15T08:36:11.355Z</time>
      </trkpt>
      <trkpt lat="48.887246" lon="2.253174">
        <ele>33.692920</ele>
        <time>2025-01-15T08:36:55.084Z</time>
      </trkpt>
      <trkpt lat="48.887299" lon="2.253012">
        <ele>33.867953</ele>
        <time>2025-01-15T08:36:59.413Z</time>
      </trkpt>
      <trkpt lat="48.887413" lon="2.252954">
        <ele>34.044798</ele>
        <time>2025-01-15T08:37:03.958Z</time>
      </trkpt>
      <trkpt lat="48.887499" lon="2.252967">
        <ele>34.171939</ele>
        <time>2025-01-15T08:37:07.220Z</time>
      </trkpt>
      <trkpt lat="48.887511" lon="2.252917">
        <ele>34.223426</ele>
        <time>2025-01-15T08:37:08.828Z</time>
      </trkpt>
      <trkpt lat="48.887558" lon="2.252598">
        <ele>34.539655</ele>
        <time>2025-01-15T08:37:18.741Z</time>
      </trkpt>
      <trkpt lat="48.887749" lon="2.252470">
        <ele>34.846712</ele>
        <time>2025-01-15T08:37:28.249Z</time>
      </trkpt>
      <trkpt lat="48.887796" lon="2.252376">
        <ele>34.963703</ele>
        <time>2025-01-15T08:37:32.156Z</time>
      </trkpt>
      <trkpt lat="48.887841" lon="2.252185">
        <ele>35.600700</ele>
        <time>2025-01-15T08:37:38.518Z</time>
      </trkpt>
      <trkpt lat="48.887842" lon="2.252157">
        <ele>35.688739</ele>
        <time>2025-01-15T08:37:39.417Z</time>
      </trkpt>
      <trkpt lat="48.887939" lon="2.251849">
        <ele>36.760931</ele>
        <time>2025-01-15T08:37:50.229Z</time>
      </trkpt>
      <trkpt lat="48.887993" lon="2.251674">
        <ele>37.367853</ele>
        <time>2025-01-15T08:37:56.284Z</time>
      </trkpt>
      <trkpt lat="48.888042" lon="2.251556">
        <ele>37.806019</ele>
        <time>2025-01-15T08:38:00.693Z</time>
      </trkpt>
      <trkpt lat="48.888148" lon="2.251416">
        <ele>38.476365</ele>
        <time>2025-01-15T08:38:07.262Z</time>
      </trkpt>
      <trkpt lat="48.888201" lon="2.251368">
        <ele>38.770903</ele>
        <time>2025-01-15T08:38:10.213Z</time>
      </trkpt>
      <trkpt lat="48.888377" lon="2.251186">
        <ele>39.787129</ele>
        <time>2025-01-15T08:38:20.529Z</time>
      </trkpt>
      <trkpt lat="48.888457" lon="2.251089">
        <ele>40.275653</ele>
        <time>2025-01-15T08:38:25.725Z</time>
      </trkpt>
      <trkpt lat="48.888612" lon="2.250989">
        <ele>41.079587</ele>
        <time>2025-01-15T08:38:34.226Z</time>
      </trkpt>
      <trkpt lat="48.889136" lon="2.250730">
        <ele>43.642400</ele>
        <time>2025-01-15T08:39:00.012Z</time>
      </trkpt>
      <trkpt lat="48.889442" lon="2.250462">
        <ele>44.622921</ele>
        <time>2025-01-15T08:39:13.314Z</time>
      </trkpt>
      <trkpt lat="48.889563" lon="2.250485">
        <ele>44.961528</ele>
        <time>2025-01-15T08:39:17.933Z</time>
      </trkpt>
      <trkpt lat="48.889602" lon="2.250464">
        <ele>45.076411</ele>
        <time>2025-01-15T08:39:19.666Z</time>
      </trkpt>
      <trkpt lat="48.889629" lon="2.250433">
        <ele>45.170350</ele>
        <time>2025-01-15T08:39:20.962Z</time>
      </trkpt>
      <trkpt lat="48.889653" lon="2.250407">
        <ele>45.252171</ele>
        <time>2025-01-15T08:39:22.043Z</time>
      </trkpt>
      <trkpt lat="48.889680" lon="2.250376">
        <ele>45.346110</ele>
        <time>2025-01-15T08:39:23.355Z</time>
      </trkpt>
      <trkpt lat="48.889704" lon="2.250349">
        <ele>45.429005</ele>
        <time>2025-01-15T08:39:24.579Z</time>
      </trkpt>
      <trkpt lat="48.889725" lon="2.250326">
        <ele>45.500864</ele>
        <time>2025-01-15T08:39:25.668Z</time>
      </trkpt>
      <trkpt lat="48.889788" lon="2.250249">
        <ele>45.725292</ele>
        <time>2025-01-15T08:39:28.763Z</time>
      </trkpt>
      <trkpt lat="48.889804" lon="2.250115">
        <ele>45.973947</ele>
        <time>2025-01-15T08:39:32.465Z</time>
      </trkpt>
      <trkpt lat="48.889979" lon="2.249861">
        <ele>46.645661</ele>
        <time>2025-01-15T08:39:41.552Z</time>
      </trkpt>
      <trkpt lat="48.890251" lon="2.249323">
        <ele>47.884734</ele>
        <time>2025-01-15T08:39:56.242Z</time>
      </trkpt>
      <trkpt lat="48.890447" lon="2.248835">
        <ele>48.695023</ele>
        <time>2025-01-15T08:40:05.615Z</time>
      </trkpt>
      <trkpt lat="48.890872" lon="2.247797">
        <ele>49.576986</ele>
        <time>2025-01-15T08:40:28.255Z</time>
      </trkpt>
      <trkpt lat="48.890928" lon="2.247691">
        <ele>49.675062</ele>
        <time>2025-01-15T08:40:30.794Z</time>
      </trkpt>
      <trkpt lat="48.890964" lon="2.247587">
        <ele>49.759833</ele>
        <time>2025-01-15T08:40:33.133Z</time>
      </trkpt>
      <trkpt lat="48.891088" lon="2.247245">
        <ele>50.041521</ele>
        <time>2025-01-15T08:40:40.356Z</time>
      </trkpt>
      <trkpt lat="48.891320" lon="2.246821">
        <ele>50.439377</ele>
        <time>2025-01-15T08:40:50.623Z</time>
      </trkpt>
      <trkpt lat="48.891579" lon="2.246456">
        <ele>50.524095</ele>
        <time>2025-01-15T08:40:59.583Z</time>
      </trkpt>
      <trkpt lat="48.892027" lon="2.246000">
        <ele>50.540539</ele>
        <time>2025-01-15T08:41:11.982Z</time>
      </trkpt>
      <trkpt lat="48.892403" lon="2.245684">
        <ele>50.553644</ele>
        <time>2025-01-15T08:41:20.948Z</time>
      </trkpt>
      <trkpt lat="48.892448" lon="2.245636">
        <ele>50.555320</ele>
        <time>2025-01-15T08:41:22.119Z</time>
      </trkpt>
      <trkpt lat="48.892508" lon="2.245572">
        <ele>50.557556</ele>
        <time>2025-01-15T08:41:23.709Z</time>
      </trkpt>
      <trkpt lat="48.892814" lon="2.245293">
        <ele>50.568439</ele>
        <time>2025-01-15T08:41:31.660Z</time>
      </trkpt>
      <trkpt lat="48.892963" lon="2.245166">
        <ele>50.515055</ele>
        <time>2025-01-15T08:41:35.234Z</time>
      </trkpt>
      <trkpt lat="48.892950" lon="2.245129">
        <ele>50.501147</ele>
        <time>2025-01-15T08:41:37.117Z</time>
      </trkpt>
      <trkpt lat="48.893555" lon="2.244727">
        <ele>50.168240</ele>
        <time>2025-01-15T08:41:50.740Z</time>
      </trkpt>
      <trkpt lat="48.894044" lon="2.244405">
        <ele>49.899551</ele>
        <time>2025-01-15T08:42:02.031Z</time>
      </trkpt>
      <trkpt lat="48.894507" lon="2.244100">
        <ele>49.654277</ele>
        <time>2025-01-15T08:42:12.474Z</time>
      </trkpt>
      <trkpt lat="48.894485" lon="2.244039">
        <ele>49.642785</ele>
        <time>2025-01-15T08:42:13.425Z</time>
      </trkpt>
      <trkpt lat="48.894473" lon="2.244007">
        <ele>49.636701</ele>
        <time>2025-01-15T08:42:13.889Z</time>
      </trkpt>
      <trkpt lat="48.894514" lon="2.243959">
        <ele>49.623703</ele>
        <time>2025-01-15T08:42:14.885Z</time>
      </trkpt>
      <trkpt lat="48.894546" lon="2.243920">
        <ele>49.613402</ele>
        <time>2025-01-15T08:42:15.693Z</time>
      </trkpt>
      <trkpt lat="48.894567" lon="2.243902">
        <ele>49.607347</ele>
        <time>2025-01-15T08:42:16.205Z</time>
      </trkpt>
      <trkpt lat="48.894611" lon="2.243860">
        <ele>49.594297</ele>
        <time>2025-01-15T08:42:17.226Z</time>
      </trkpt>
      <trkpt lat="48.894825" lon="2.243517">
        <ele>49.516197</ele>
        <time>2025-01-15T08:42:23.716Z</time>
      </trkpt>
      <trkpt lat="48.894773" lon="2.243261">
        <ele>49.471944</ele>
        <time>2025-01-15T08:42:27.378Z</time>
      </trkpt>
      <trkpt lat="48.894759" lon="2.243234">
        <ele>49.466265</ele>
        <time>2025-01-15T08:42:27.861Z</time>
      </trkpt>
      <trkpt lat="48.894774" lon="2.243213">
        <ele>49.461143</ele>
        <time>2025-01-15T08:42:28.284Z</time>
      </trkpt>
      <trkpt lat="48.894867" lon="2.243039">
        <ele>49.424107</ele>
        <time>2025-01-15T08:42:31.517Z</time>
      </trkpt>
      <trkpt lat="48.894875" lon="2.243005">
        <ele>49.418142</ele>
        <time>2025-01-15T08:42:32.071Z</time>
      </trkpt>
      <trkpt lat="48.894968" lon="2.242633">
        <ele>49.352410</ele>
        <time>2025-01-15T08:42:37.966Z</time>
      </trkpt>
      <trkpt lat="48.894980" lon="2.242433">
        <ele>49.319241</ele>
        <time>2025-01-15T08:42:40.834Z</time>
      </trkpt>
      <trkpt lat="48.894945" lon="2.242226">
        <ele>49.283940</ele>
        <time>2025-01-15T08:42:43.959Z</time>
      </trkpt>
      <trkpt lat="48.894974" lon="2.242205">
        <ele>49.275871</ele>
        <time>2025-01-15T08:42:44.781Z</time>
      </trkpt>
      <trkpt lat="48.894978" lon="2.242192">
        <ele>49.273501</ele>
        <time>2025-01-15T08:42:45.019Z</time>
      </trkpt>
      <trkpt lat="48.894925" lon="2.242072">
        <ele>49.249624</ele>
        <time>2025-01-15T08:42:47.264Z</time>
      </trkpt>
      <trkpt lat="48.894962" lon="2.242018">
        <ele>49.236742</ele>
        <time>2025-01-15T08:42:48.753Z</time>
      </trkpt>
      <trkpt lat="48.894925" lon="2.241948">
        <ele>49.221908</ele>
        <time>2025-01-15T08:42:50.263Z</time>
      </trkpt>
      <trkpt lat="48.894698" lon="2.241501">
        <ele>49.093870</ele>
        <time>2025-01-15T08:43:00.066Z</time>
      </trkpt>
      <trkpt lat="48.894629" lon="2.241315">
        <ele>49.043808</ele>
        <time>2025-01-15T08:43:03.866Z</time>
      </trkpt>
      <trkpt lat="48.894579" lon="2.241010">
        <ele>48.970124</ele>
        <time>2025-01-15T08:43:08.891Z</time>
      </trkpt>
      <trkpt lat="48.894600" lon="2.241004">
        <ele>48.962506</ele>
        <time>2025-01-15T08:43:09.351Z</time>
      </trkpt>
      <trkpt lat="48.894810" lon="2.240951">
        <ele>48.886608</ele>
        <time>2025-01-15T08:43:13.878Z</time>
      </trkpt>
      <trkpt lat="48.895367" lon="2.240832">
        <ele>48.686063</ele>
        <time>2025-01-15T08:43:25.246Z</time>
      </trkpt>
      <trkpt lat="48.895389" lon="2.240787">
        <ele>48.672917</ele>
        <time>2025-01-15T08:43:25.984Z</time>
      </trkpt>
      <trkpt lat="48.895480" lon="2.240689">
        <ele>48.633163</ele>
        <time>2025-01-15T08:43:28.200Z</time>
      </trkpt>
      <trkpt lat="48.895634" lon="2.240565">
        <ele>48.571036</ele>
        <time>2025-01-15T08:43:31.660Z</time>
      </trkpt>
      <trkpt lat="48.896277" lon="2.240471">
        <ele>47.707527</ele>
        <time>2025-01-15T08:43:43.957Z</time>
      </trkpt>
      <trkpt lat="48.896536" lon="2.240433">
        <ele>47.358775</ele>
        <time>2025-01-15T08:43:48.629Z</time>
      </trkpt>
      <trkpt lat="48.897098" lon="2.240355">
        <ele>46.602388</ele>
        <time>2025-01-15T08:43:59.061Z</time>
      </trkpt>
      <trkpt lat="48.897110" lon="2.240353">
        <ele>46.586208</ele>
        <time>2025-01-15T08:43:59.314Z</time>
      </trkpt>
      <trkpt lat="48.897745" lon="2.240263">
        <ele>46.085327</ele>
        <time>2025-01-15T08:44:12.995Z</time>
      </trkpt>
      <trkpt lat="48.897796" lon="2.240225">
        <ele>46.072145</ele>
        <time>2025-01-15T08:44:14.233Z</time>
      </trkpt>
      <trkpt lat="48.897941" lon="2.240212">
        <ele>46.038428</ele>
        <time>2025-01-15T08:44:17.475Z</time>
      </trkpt>
      <trkpt lat="48.898387" lon="2.240148">
        <ele>45.934439</ele>
        <time>2025-01-15T08:44:27.456Z</time>
      </trkpt>
      <trkpt lat="48.898660" lon="2.240105">
        <ele>45.870730</ele>
        <time>2025-01-15T08:44:33.786Z</time>
      </trkpt>
      <trkpt lat="48.899257" lon="2.240020">
        <ele>45.695513</ele>
        <time>2025-01-15T08:44:47.394Z</time>
      </trkpt>
      <trkpt lat="48.899760" lon="2.239963">
        <ele>45.172789</ele>
        <time>2025-01-15T08:44:57.430Z</time>
      </trkpt>
      <trkpt lat="48.899954" lon="2.239989">
        <ele>44.970961</ele>
        <time>2025-01-15T08:45:01.110Z</time>
      </trkpt>
      <trkpt lat="48.900033" lon="2.240110">
        <ele>44.854779</ele>
        <time>2025-01-15T08:45:03.225Z</time>
      </trkpt>
      <trkpt lat="48.900060" lon="2.240127">
        <ele>44.824496</ele>
        <time>2025-01-15T08:45:03.756Z</time>
      </trkpt>
      <trkpt lat="48.900088" lon="2.240132">
        <ele>44.795279</ele>
        <time>2025-01-15T08:45:04.276Z</time>
      </trkpt>
      <trkpt lat="48.901139" lon="2.239990">
        <ele>43.680465</ele>
        <time>2025-01-15T08:45:24.783Z</time>
      </trkpt>
      <trkpt lat="48.901682" lon="2.239911">
        <ele>43.046699</ele>
        <time>2025-01-15T08:45:35.905Z</time>
      </trkpt>
      <trkpt lat="48.902148" lon="2.239844">
        <ele>42.502862</ele>
        <time>2025-01-15T08:45:44.977Z</time>
      </trkpt>
      <trkpt lat="48.902190" lon="2.239838">
        <ele>42.453849</ele>
        <time>2025-01-15T08:45:45.782Z</time>
      </trkpt>
      <trkpt lat="48.902268" lon="2.239827">
        <ele>42.362836</ele>
        <time>2025-01-15T08:45:47.295Z</time>
      </trkpt>
      <trkpt lat="48.902300" lon="2.239822">
        <ele>42.325461</ele>
        <time>2025-01-15T08:45:47.932Z</time>
      </trkpt>
      <trkpt lat="48.902330" lon="2.239818">
        <ele>42.290472</ele>
        <time>2025-01-15T08:45:48.512Z</time>
      </trkpt>
      <trkpt lat="48.902367" lon="2.239812">
        <ele>42.247240</ele>
        <time>2025-01-15T08:45:49.240Z</time>
      </trkpt>
      <trkpt lat="48.903194" lon="2.239683">
        <ele>41.337139</ele>
        <time>2025-01-15T08:46:05.332Z</time>
      </trkpt>
      <trkpt lat="48.904279" lon="2.239515">
        <ele>40.209498</ele>
        <time>2025-01-15T08:46:26.810Z</time>
      </trkpt>
      <trkpt lat="48.904470" lon="2.239486">
        <ele>40.011031</ele>
        <time>2025-01-15T08:46:30.843Z</time>
      </trkpt>
      <trkpt lat="48.904506" lon="2.239480">
        <ele>39.973586</ele>
        <time>2025-01-15T08:46:31.597Z</time>
      </trkpt>
      <trkpt lat="48.904574" lon="2.239468">
        <ele>39.913116</ele>
        <time>2025-01-15T08:46:33.078Z</time>
      </trkpt>
      <trkpt lat="48.904634" lon="2.239463">
        <ele>39.875966</ele>
        <time>2025-01-15T08:46:34.319Z</time>
      </trkpt>
      <trkpt lat="48.904706" lon="2.239456">
        <ele>39.831362</ele>
        <time>2025-01-15T08:46:35.860Z</time>
      </trkpt>
      <trkpt lat="48.905108" lon="2.239389">
        <ele>39.581342</ele>
        <time>2025-01-15T08:46:44.327Z</time>
      </trkpt>
      <trkpt lat="48.905985" lon="2.239257">
        <ele>39.036497</ele>
        <time>2025-01-15T08:47:02.261Z</time>
      </trkpt>
      <trkpt lat="48.906350" lon="2.239254">
        <ele>38.814816</ele>
        <time>2025-01-15T08:47:09.828Z</time>
      </trkpt>
      <trkpt lat="48.906644" lon="2.239211">
        <ele>38.761550</ele>
        <time>2025-01-15T08:47:16.177Z</time>
      </trkpt>
      <trkpt lat="48.906668" lon="2.239199">
        <ele>38.756994</ele>
        <time>2025-01-15T08:47:16.748Z</time>
      </trkpt>
      <trkpt lat="48.906747" lon="2.239187">
        <ele>38.742676</ele>
        <time>2025-01-15T08:47:18.440Z</time>
      </trkpt>
      <trkpt lat="48.906867" lon="2.239169">
        <ele>38.720930</ele>
        <time>2025-01-15T08:47:21.057Z</time>
      </trkpt>
      <trkpt lat="48.906942" lon="2.239158">
        <ele>38.707341</ele>
        <time>2025-01-15T08:47:22.660Z</time>
      </trkpt>
      <trkpt lat="48.906980" lon="2.239152">
        <ele>38.700451</ele>
        <time>2025-01-15T08:47:23.540Z</time>
      </trkpt>
      <trkpt lat="48.907040" lon="2.239083">
        <ele>38.686887</ele>
        <time>2025-01-15T08:47:25.160Z</time>
      </trkpt>
      <trkpt lat="48.907216" lon="2.239014">
        <ele>38.654110</ele>
        <time>2025-01-15T08:47:29.138Z</time>
      </trkpt>
      <trkpt lat="48.907344" lon="2.238917">
        <ele>38.628320</ele>
        <time>2025-01-15T08:47:32.225Z</time>
      </trkpt>
      <trkpt lat="48.907515" lon="2.238736">
        <ele>38.590752</ele>
        <time>2025-01-15T08:47:36.694Z</time>
      </trkpt>
      <trkpt lat="48.907859" lon="2.238352">
        <ele>38.513807</ele>
        <time>2025-01-15T08:47:45.635Z</time>
      </trkpt>
      <trkpt lat="48.908056" lon="2.238125">
        <ele>38.523247</ele>
        <time>2025-01-15T08:47:51.486Z</time>
      </trkpt>
      <trkpt lat="48.908562" lon="2.237517">
        <ele>38.681927</ele>
        <time>2025-01-15T08:48:07.981Z</time>
      </trkpt>
      <trkpt lat="48.908537" lon="2.237466">
        <ele>38.692218</ele>
        <time>2025-01-15T08:48:08.948Z</time>
      </trkpt>
      <trkpt lat="48.908563" lon="2.237436">
        <ele>38.700249</ele>
        <time>2025-01-15T08:48:09.837Z</time>
      </trkpt>
      <trkpt lat="48.908633" lon="2.237359">
        <ele>38.721507</ele>
        <time>2025-01-15T08:48:11.956Z</time>
      </trkpt>
      <trkpt lat="48.908706" lon="2.237278">
        <ele>38.743742</ele>
        <time>2025-01-15T08:48:14.283Z</time>
      </trkpt>
      <trkpt lat="48.908910" lon="2.236991">
        <ele>38.812121</ele>
        <time>2025-01-15T08:48:20.845Z</time>
      </trkpt>
      <trkpt lat="48.908968" lon="2.236870">
        <ele>38.836345</ele>
        <time>2025-01-15T08:48:23.142Z</time>
      </trkpt>
      <trkpt lat="48.909132" lon="2.236567">
        <ele>38.899836</ele>
        <time>2025-01-15T08:48:29.360Z</time>
      </trkpt>
      <trkpt lat="48.909157" lon="2.236521">
        <ele>38.909491</ele>
        <time>2025-01-15T08:48:30.216Z</time>
      </trkpt>
      <trkpt lat="48.909224" lon="2.236515">
        <ele>38.926008</ele>
        <time>2025-01-15T08:48:31.831Z</time>
      </trkpt>
      <trkpt lat="48.909299" lon="2.236386">
        <ele>38.863355</ele>
        <time>2025-01-15T08:48:34.426Z</time>
      </trkpt>
      <trkpt lat="48.909805" lon="2.235658">
        <ele>38.224136</ele>
        <time>2025-01-15T08:48:48.725Z</time>
      </trkpt>
      <trkpt lat="48.910063" lon="2.235287">
        <ele>37.898292</ele>
        <time>2025-01-15T08:48:55.669Z</time>
      </trkpt>
      <trkpt lat="48.910174" lon="2.235185">
        <ele>37.779266</ele>
        <time>2025-01-15T08:48:58.194Z</time>
      </trkpt>
      <trkpt lat="48.910249" lon="2.235069">
        <ele>37.681101</ele>
        <time>2025-01-15T08:49:00.274Z</time>
      </trkpt>
      <trkpt lat="48.910413" lon="2.234858">
        <ele>37.483964</ele>
        <time>2025-01-15T08:49:04.373Z</time>
      </trkpt>
      <trkpt lat="48.910429" lon="2.234839">
        <ele>37.465334</ele>
        <time>2025-01-15T08:49:04.753Z</time>
      </trkpt>
      <trkpt lat="48.910457" lon="2.234803">
        <ele>37.431686</ele>
        <time>2025-01-15T08:49:05.440Z</time>
      </trkpt>
      <trkpt lat="48.910424" lon="2.234714">
        <ele>37.370040</ele>
        <time>2025-01-15T08:49:06.671Z</time>
      </trkpt>
      <trkpt lat="48.910342" lon="2.234446">
        <ele>37.234489</ele>
        <time>2025-01-15T08:49:10.276Z</time>
      </trkpt>
      <trkpt lat="48.910334" lon="2.234281">
        <ele>37.181059</ele>
        <time>2025-01-15T08:49:12.314Z</time>
      </trkpt>
      <trkpt lat="48.910322" lon="2.234248">
        <ele>37.168879</ele>
        <time>2025-01-15T08:49:12.783Z</time>
      </trkpt>
      <trkpt lat="48.910157" lon="2.233768">
        <ele>36.993946</ele>
        <time>2025-01-15T08:49:19.797Z</time>
      </trkpt>
      <trkpt lat="48.910057" lon="2.233478">
        <ele>36.888186</ele>
        <time>2025-01-15T08:49:24.367Z</time>
      </trkpt>
      <trkpt lat="48.909998" lon="2.233399">
        <ele>36.849568</ele>
        <time>2025-01-15T08:49:26.153Z</time>
      </trkpt>
      <trkpt lat="48.909910" lon="2.233132">
        <ele>36.753108</ele>
        <time>2025-01-15T08:49:30.830Z</time>
      </trkpt>
      <trkpt lat="48.909269" lon="2.231634">
        <ele>36.278199</ele>
        <time>2025-01-15T08:49:56.991Z</time>
      </trkpt>
      <trkpt lat="48.909022" lon="2.231039">
        <ele>36.154707</ele>
        <time>2025-01-15T08:50:07.057Z</time>
      </trkpt>
      <trkpt lat="48.909010" lon="2.230927">
        <ele>36.134794</ele>
        <time>2025-01-15T08:50:08.577Z</time>
      </trkpt>
      <trkpt lat="48.908783" lon="2.230275">
        <ele>36.005320</ele>
        <time>2025-01-15T08:50:18.454Z</time>
      </trkpt>
      <trkpt lat="48.908541" lon="2.229582">
        <ele>35.990314</ele>
        <time>2025-01-15T08:50:29.287Z</time>
      </trkpt>
      <trkpt lat="48.908436" lon="2.229458">
        <ele>36.038292</ele>
        <time>2025-01-15T08:50:32.363Z</time>
      </trkpt>
      <trkpt lat="48.908407" lon="2.229374">
        <ele>36.060803</ele>
        <time>2025-01-15T08:50:33.826Z</time>
      </trkpt>
      <trkpt lat="48.908354" lon="2.229221">
        <ele>36.101835</ele>
        <time>2025-01-15T08:50:36.584Z</time>
      </trkpt>
      <trkpt lat="48.908330" lon="2.229150">
        <ele>36.120776</ele>
        <time>2025-01-15T08:50:37.885Z</time>
      </trkpt>
      <trkpt lat="48.908203" lon="2.228779">
        <ele>36.220018</ele>
        <time>2025-01-15T08:50:44.834Z</time>
      </trkpt>
      <trkpt lat="48.908137" lon="2.228571">
        <ele>36.274815</ele>
        <time>2025-01-15T08:50:48.741Z</time>
      </trkpt>
      <trkpt lat="48.908031" lon="2.228281">
        <ele>36.353540</ele>
        <time>2025-01-15T08:50:54.311Z</time>
      </trkpt>
      <trkpt lat="48.907616" lon="2.227089">
        <ele>36.628854</ele>
        <time>2025-01-15T08:51:17.012Z</time>
      </trkpt>
      <trkpt lat="48.907545" lon="2.226893">
        <ele>36.659241</ele>
        <time>2025-01-15T08:51:20.776Z</time>
      </trkpt>
      <trkpt lat="48.907252" lon="2.226274">
        <ele>36.762817</ele>
        <time>2025-01-15T08:51:31.864Z</time>
      </trkpt>
      <trkpt lat="48.906922" lon="2.225593">
        <ele>36.877698</ele>
        <time>2025-01-15T08:51:44.492Z</time>
      </trkpt>
      <trkpt lat="48.906645" lon="2.224547">
        <ele>36.722008</ele>
        <time>2025-01-15T08:52:01.028Z</time>
      </trkpt>
      <trkpt lat="48.906607" lon="2.224403">
        <ele>36.670967</ele>
        <time>2025-01-15T08:52:03.171Z</time>
      </trkpt>
      <trkpt lat="48.906596" lon="2.224100">
        <ele>36.571150</ele>
        <time>2025-01-15T08:52:07.319Z</time>
      </trkpt>
      <trkpt lat="48.906621" lon="2.223106">
        <ele>36.243956</ele>
        <time>2025-01-15T08:52:20.720Z</time>
      </trkpt>
      <trkpt lat="48.906630" lon="2.222944">
        <ele>36.190479</ele>
        <time>2025-01-15T08:52:22.931Z</time>
      </trkpt>
      <trkpt lat="48.906640" lon="2.222673">
        <ele>36.101199</ele>
        <time>2025-01-15T08:52:26.623Z</time>
      </trkpt>
      <trkpt lat="48.906680" lon="2.221367">
        <ele>35.461938</ele>
        <time>2025-01-15T08:52:43.789Z</time>
      </trkpt>
      <trkpt lat="48.906731" lon="2.220539">
        <ele>35.033440</ele>
        <time>2025-01-15T08:52:54.893Z</time>
      </trkpt>
      <trkpt lat="48.906767" lon="2.219957">
        <ele>34.732238</ele>
        <time>2025-01-15T08:53:02.698Z</time>
      </trkpt>
      <trkpt lat="48.906877" lon="2.218660">
        <ele>34.420004</ele>
        <time>2025-01-15T08:53:20.826Z</time>
      </trkpt>
      <trkpt lat="48.906917" lon="2.218327">
        <ele>34.355822</ele>
        <time>2025-01-15T08:53:25.667Z</time>
      </trkpt>
      <trkpt lat="48.907088" lon="2.217171">
        <ele>34.131167</ele>
        <time>2025-01-15T08:53:42.907Z</time>
      </trkpt>
      <trkpt lat="48.907310" lon="2.215849">
        <ele>33.303011</ele>
        <time>2025-01-15T08:54:01.911Z</time>
      </trkpt>
      <trkpt lat="48.907742" lon="2.214174">
        <ele>32.140083</ele>
        <time>2025-01-15T08:54:24.309Z</time>
      </trkpt>
      <trkpt lat="48.907786" lon="2.213999">
        <ele>32.014396</ele>
        <time>2025-01-15T08:54:26.633Z</time>
      </trkpt>
      <trkpt lat="48.907840" lon="2.213918">
        <ele>31.937003</ele>
        <time>2025-01-15T08:54:28.053Z</time>
      </trkpt>
      <trkpt lat="48.907919" lon="2.213910">
        <ele>31.856198</ele>
        <time>2025-01-15T08:54:29.551Z</time>
      </trkpt>
      <trkpt lat="48.907968" lon="2.213942">
        <ele>31.801776</ele>
        <time>2025-01-15T08:54:30.545Z</time>
      </trkpt>
      <trkpt lat="48.908045" lon="2.214094">
        <ele>31.673044</ele>
        <time>2025-01-15T08:54:32.914Z</time>
      </trkpt>
      <trkpt lat="48.908326" lon="2.214838">
        <ele>31.097435</ele>
        <time>2025-01-15T08:54:43.983Z</time>
      </trkpt>
      <trkpt lat="48.908455" lon="2.214862">
        <ele>30.964798</ele>
        <time>2025-01-15T08:54:46.730Z</time>
      </trkpt>
      <trkpt lat="48.908543" lon="2.214905">
        <ele>30.870468</ele>
        <time>2025-01-15T08:54:48.693Z</time>
      </trkpt>
      <trkpt lat="48.908620" lon="2.214842">
        <ele>30.781240</ele>
        <time>2025-01-15T08:54:50.594Z</time>
      </trkpt>
      <trkpt lat="48.908776" lon="2.214636">
        <ele>30.570424</ele>
        <time>2025-01-15T08:54:55.259Z</time>
      </trkpt>
      <trkpt lat="48.909053" lon="2.214865">
        <ele>30.564021</ele>
        <time>2025-01-15T08:55:02.274Z</time>
      </trkpt>
      <trkpt lat="48.909851" lon="2.215627">
        <ele>30.711297</ele>
        <time>2025-01-15T08:55:25.639Z</time>
      </trkpt>
      <trkpt lat="48.909888" lon="2.215569">
        <ele>30.719601</ele>
        <time>2025-01-15T08:55:26.927Z</time>
      </trkpt>
      <trkpt lat="48.910069" lon="2.215113">
        <ele>30.774332</ele>
        <time>2025-01-15T08:55:35.363Z</time>
      </trkpt>
      <trkpt lat="48.910099" lon="2.215058">
        <ele>30.781675</ele>
        <time>2025-01-15T08:55:36.428Z</time>
      </trkpt>
      <trkpt lat="48.909845" lon="2.214825">
        <ele>30.712999</ele>
        <time>2025-01-15T08:55:43.103Z</time>
      </trkpt>
      <trkpt lat="48.909079" lon="2.214123">
        <ele>30.202716</ele>
        <time>2025-01-15T08:56:01.038Z</time>
      </trkpt>
      <trkpt lat="48.908600" lon="2.213633">
        <ele>29.873340</ele>
        <time>2025-01-15T08:56:12.615Z</time>
      </trkpt>
      <trkpt lat="48.908402" lon="2.213438">
        <ele>29.805502</ele>
        <time>2025-01-15T08:56:17.578Z</time>
      </trkpt>
      <trkpt lat="48.908110" lon="2.213043">
        <ele>29.972470</ele>
        <time>2025-01-15T08:56:26.147Z</time>
      </trkpt>
      <trkpt lat="48.908097" lon="2.212867">
        <ele>30.022214</ele>
        <time>2025-01-15T08:56:28.954Z</time>
      </trkpt>
      <trkpt lat="48.908099" lon="2.212841">
        <ele>30.029566</ele>
        <time>2025-01-15T08:56:29.371Z</time>
      </trkpt>
      <trkpt lat="48.908148" lon="2.212578">
        <ele>30.106344</ele>
        <time>2025-01-15T08:56:33.973Z</time>
      </trkpt>
      <trkpt lat="48.908157" lon="2.212549">
        <ele>30.115352</ele>
        <time>2025-01-15T08:56:34.547Z</time>
      </trkpt>
      <trkpt lat="48.908693" lon="2.210839">
        <ele>30.461456</ele>
        <time>2025-01-15T08:57:08.028Z</time>
      </trkpt>
      <trkpt lat="48.908740" lon="2.210699">
        <ele>30.425040</ele>
        <time>2025-01-15T08:57:10.427Z</time>
      </trkpt>
      <trkpt lat="48.908934" lon="2.210119">
        <ele>30.274285</ele>
        <time>2025-01-15T08:57:19.808Z</time>
      </trkpt>
      <trkpt lat="48.908947" lon="2.210076">
        <ele>30.263321</ele>
        <time>2025-01-15T08:57:20.451Z</time>
      </trkpt>
      <trkpt lat="48.909138" lon="2.209501">
        <ele>30.114078</ele>
        <time>2025-01-15T08:57:29.183Z</time>
      </trkpt>
      <trkpt lat="48.909383" lon="2.208756">
        <ele>29.921103</ele>
        <time>2025-01-15T08:57:40.000Z</time>
      </trkpt>
      <trkpt lat="48.909627" lon="2.207981">
        <ele>29.214399</ele>
        <time>2025-01-15T08:57:51.575Z</time>
      </trkpt>
      <trkpt lat="48.909860" lon="2.207441">
        <ele>28.664023</ele>
        <time>2025-01-15T08:58:00.079Z</time>
      </trkpt>
      <trkpt lat="48.910254" lon="2.206617">
        <ele>27.795832</ele>
        <time>2025-01-15T08:58:12.952Z</time>
      </trkpt>
      <trkpt lat="48.910699" lon="2.205776">
        <ele>27.071532</ele>
        <time>2025-01-15T08:58:26.621Z</time>
      </trkpt>
      <trkpt lat="48.912189" lon="2.202721">
        <ele>25.827681</ele>
        <time>2025-01-15T08:59:17.726Z</time>
      </trkpt>
      <trkpt lat="48.912318" lon="2.202413">
        <ele>25.814489</ele>
        <time>2025-01-15T08:59:24.289Z</time>
      </trkpt>
      <trkpt lat="48.912401" lon="2.202253">
        <ele>25.807126</ele>
        <time>2025-01-15T08:59:28.284Z</time>
      </trkpt>
      <trkpt lat="48.913060" lon="2.200825">
        <ele>26.330443</ele>
        <time>2025-01-15T09:00:01.200Z</time>
      </trkpt>
      <trkpt lat="48.913178" lon="2.200684">
        <ele>26.413188</ele>
        <time>2025-01-15T09:00:04.528Z</time>
      </trkpt>
      <trkpt lat="48.913191" lon="2.200563">
        <ele>26.457627</ele>
        <time>2025-01-15T09:00:06.312Z</time>
      </trkpt>
      <trkpt lat="48.913012" lon="2.200304">
        <ele>26.593853</ele>
        <time>2025-01-15T09:00:11.620Z</time>
      </trkpt>
      <trkpt lat="48.912842" lon="2.199914">
        <ele>26.763474</ele>
        <time>2025-01-15T09:00:18.200Z</time>
      </trkpt>
      <trkpt lat="48.912792" lon="2.199799">
        <ele>26.786006</ele>
        <time>2025-01-15T09:00:20.140Z</time>
      </trkpt>
      <trkpt lat="48.912457" lon="2.199034">
        <ele>26.742272</ele>
        <time>2025-01-15T09:00:32.953Z</time>
      </trkpt>
      <trkpt lat="48.912372" lon="2.198855">
        <ele>26.731766</ele>
        <time>2025-01-15T09:00:36.049Z</time>
      </trkpt>
      <trkpt lat="48.911980" lon="2.198015">
        <ele>26.682752</ele>
        <time>2025-01-15T09:00:51.261Z</time>
      </trkpt>
      <trkpt lat="48.911612" lon="2.197122">
        <ele>26.645022</ele>
        <time>2025-01-15T09:01:08.027Z</time>
      </trkpt>
      <trkpt lat="48.911290" lon="2.196241">
        <ele>26.619635</ele>
        <time>2025-01-15T09:01:23.229Z</time>
      </trkpt>
      <trkpt lat="48.911149" lon="2.195852">
        <ele>26.608447</ele>
        <time>2025-01-15T09:01:29.512Z</time>
      </trkpt>
      <trkpt lat="48.911082" lon="2.195645">
        <ele>26.602636</ele>
        <time>2025-01-15T09:01:32.767Z</time>
      </trkpt>
      <trkpt lat="48.911056" lon="2.195432">
        <ele>26.597179</ele>
        <time>2025-01-15T09:01:35.802Z</time>
      </trkpt>
      <trkpt lat="48.911069" lon="2.195392">
        <ele>26.596056</ele>
        <time>2025-01-15T09:01:36.433Z</time>
      </trkpt>
      <trkpt lat="48.911064" lon="2.195282">
        <ele>26.593279</ele>
        <time>2025-01-15T09:01:37.968Z</time>
      </trkpt>
      <trkpt lat="48.911030" lon="2.195224">
        <ele>26.591321</ele>
        <time>2025-01-15T09:01:39.042Z</time>
      </trkpt>
      <trkpt lat="48.910982" lon="2.195202">
        <ele>26.580849</ele>
        <time>2025-01-15T09:01:40.107Z</time>
      </trkpt>
      <trkpt lat="48.910865" lon="2.194993">
        <ele>26.484892</ele>
        <time>2025-01-15T09:01:43.861Z</time>
      </trkpt>
      <trkpt lat="48.910567" lon="2.194018">
        <ele>26.109063</ele>
        <time>2025-01-15T09:01:58.111Z</time>
      </trkpt>
      <trkpt lat="48.909834" lon="2.191687">
        <ele>25.650807</ele>
        <time>2025-01-15T09:02:34.187Z</time>
      </trkpt>
      <trkpt lat="48.909728" lon="2.191358">
        <ele>25.655979</ele>
        <time>2025-01-15T09:02:39.988Z</time>
      </trkpt>
      <trkpt lat="48.909386" lon="2.190421">
        <ele>25.671106</ele>
        <time>2025-01-15T09:02:56.612Z</time>
      </trkpt>
      <trkpt lat="48.908760" lon="2.188945">
        <ele>26.341665</ele>
        <time>2025-01-15T09:03:25.213Z</time>
      </trkpt>
      <trkpt lat="48.908722" lon="2.188729">
        <ele>26.430682</ele>
        <time>2025-01-15T09:03:29.113Z</time>
      </trkpt>
      <trkpt lat="48.908727" lon="2.188626">
        <ele>26.471798</ele>
        <time>2025-01-15T09:03:30.952Z</time>
      </trkpt>
      <trkpt lat="48.908763" lon="2.188399">
        <ele>26.564761</ele>
        <time>2025-01-15T09:03:35.024Z</time>
      </trkpt>
      <trkpt lat="48.908883" lon="2.188204">
        <ele>26.671106</ele>
        <time>2025-01-15T09:03:39.798Z</time>
      </trkpt>
      <trkpt lat="48.909375" lon="2.187643">
        <ele>26.731891</ele>
        <time>2025-01-15T09:03:55.747Z</time>
      </trkpt>
      <trkpt lat="48.909683" lon="2.187264">
        <ele>26.706609</ele>
        <time>2025-01-15T09:04:04.899Z</time>
      </trkpt>
      <trkpt lat="48.909742" lon="2.187279">
        <ele>26.702791</ele>
        <time>2025-01-15T09:04:06.247Z</time>
      </trkpt>
      <trkpt lat="48.909787" lon="2.187218">
        <ele>26.698944</ele>
        <time>2025-01-15T09:04:07.507Z</time>
      </trkpt>
      <trkpt lat="48.909779" lon="2.187116">
        <ele>26.694635</ele>
        <time>2025-01-15T09:04:08.967Z</time>
      </trkpt>
      <trkpt lat="48.909720" lon="2.187073">
        <ele>26.690459</ele>
        <time>2025-01-15T09:04:10.320Z</time>
      </trkpt>
      <trkpt lat="48.909664" lon="2.187122">
        <ele>26.686336</ele>
        <time>2025-01-15T09:04:11.668Z</time>
      </trkpt>
      <trkpt lat="48.909122" lon="2.186118">
        <ele>26.640410</ele>
        <time>2025-01-15T09:04:28.768Z</time>
      </trkpt>
      <trkpt lat="48.907914" lon="2.183739">
        <ele>26.843915</ele>
        <time>2025-01-15T09:05:14.293Z</time>
      </trkpt>
      <trkpt lat="48.907573" lon="2.183056">
        <ele>27.180909</ele>
        <time>2025-01-15T09:05:29.743Z</time>
      </trkpt>
      <trkpt lat="48.906937" lon="2.181604">
        <ele>28.022592</ele>
        <time>2025-01-15T09:05:58.487Z</time>
      </trkpt>
      <trkpt lat="48.906581" lon="2.180741">
        <ele>28.745885</ele>
        <time>2025-01-15T09:06:14.450Z</time>
      </trkpt>
      <trkpt lat="48.906211" lon="2.179908">
        <ele>29.459590</ele>
        <time>2025-01-15T09:06:33.442Z</time>
      </trkpt>
      <trkpt lat="48.906265" lon="2.179616">
        <ele>29.861044</ele>
        <time>2025-01-15T09:06:39.795Z</time>
      </trkpt>
      <trkpt lat="48.906219" lon="2.179193">
        <ele>31.119733</ele>
        <time>2025-01-15T09:06:49.556Z</time>
      </trkpt>
      <trkpt lat="48.905832" lon="2.177996">
        <ele>35.035898</ele>
        <time>2025-01-15T09:07:29.753Z</time>
      </trkpt>
      <trkpt lat="48.905828" lon="2.177931">
        <ele>35.227555</ele>
        <time>2025-01-15T09:07:31.902Z</time>
      </trkpt>
      <trkpt lat="48.905822" lon="2.177728">
        <ele>35.824113</ele>
        <time>2025-01-15T09:07:38.443Z</time>
      </trkpt>
      <trkpt lat="48.905923" lon="2.177382">
        <ele>36.935542</ele>
        <time>2025-01-15T09:07:51.028Z</time>
      </trkpt>
      <trkpt lat="48.905966" lon="2.177262">
        <ele>37.336780</ele>
        <time>2025-01-15T09:07:55.748Z</time>
      </trkpt>
      <trkpt lat="48.906220" lon="2.176513">
        <ele>40.293799</ele>
        <time>2025-01-15T09:08:26.316Z</time>
      </trkpt>
      <trkpt lat="48.906309" lon="2.176290">
        <ele>41.230709</ele>
        <time>2025-01-15T09:08:36.301Z</time>
      </trkpt>
      <trkpt lat="48.906472" lon="2.176004">
        <ele>42.590131</ele>
        <time>2025-01-15T09:08:50.488Z</time>
      </trkpt>
      <trkpt lat="48.906784" lon="2.175637">
        <ele>44.744870</ele>
        <time>2025-01-15T09:09:10.554Z</time>
      </trkpt>
      <trkpt lat="48.906973" lon="2.175260">
        <ele>46.447602</ele>
        <time>2025-01-15T09:09:25.113Z</time>
      </trkpt>
      <trkpt lat="48.907151" lon="2.175139">
        <ele>47.488660</ele>
        <time>2025-01-15T09:09:33.691Z</time>
      </trkpt>
      <trkpt lat="48.907137" lon="2.175025">
        <ele>47.630940</ele>
        <time>2025-01-15T09:09:36.825Z</time>
      </trkpt>
      <trkpt lat="48.907192" lon="2.174621">
        <ele>48.137102</ele>
        <time>2025-01-15T09:09:47.301Z</time>
      </trkpt>
      <trkpt lat="48.907189" lon="2.174318">
        <ele>48.508875</ele>
        <time>2025-01-15T09:09:54.247Z</time>
      </trkpt>
      <trkpt lat="48.907135" lon="2.173943">
        <ele>48.979850</ele>
        <time>2025-01-15T09:10:02.390Z</time>
      </trkpt>
      <trkpt lat="48.907025" lon="2.173691">
        <ele>49.350980</ele>
        <time>2025-01-15T09:10:08.296Z</time>
      </trkpt>
      <trkpt lat="48.906601" lon="2.172826">
        <ele>50.674807</ele>
        <time>2025-01-15T09:10:26.801Z</time>
      </trkpt>
      <trkpt lat="48.906800" lon="2.172585">
        <ele>50.870547</ele>
        <time>2025-01-15T09:10:33.019Z</time>
      </trkpt>
      <trkpt lat="48.908052" lon="2.170993">
        <ele>51.229275</ele>
        <time>2025-01-15T09:11:10.097Z</time>
      </trkpt>
      <trkpt lat="48.908138" lon="2.170836">
        <ele>51.290308</ele>
        <time>2025-01-15T09:11:13.162Z</time>
      </trkpt>
      <trkpt lat="48.908209" lon="2.170607">
        <ele>51.365922</ele>
        <time>2025-01-15T09:11:17.035Z</time>
      </trkpt>
      <trkpt lat="48.908298" lon="2.167651">
        <ele>52.221503</ele>
        <time>2025-01-15T09:12:05.809Z</time>
      </trkpt>
      <trkpt lat="48.908347" lon="2.166837">
        <ele>52.432020</ele>
        <time>2025-01-15T09:12:19.076Z</time>
      </trkpt>
      <trkpt lat="48.908547" lon="2.164472">
        <ele>52.556708</ele>
        <time>2025-01-15T09:12:55.396Z</time>
      </trkpt>
      <trkpt lat="48.909031" lon="2.161440">
        <ele>51.226926</ele>
        <time>2025-01-15T09:13:37.948Z</time>
      </trkpt>
      <trkpt lat="48.909120" lon="2.160996">
        <ele>50.905134</ele>
        <time>2025-01-15T09:13:43.819Z</time>
      </trkpt>
      <trkpt lat="48.909153" lon="2.160899">
        <ele>50.829417</ele>
        <time>2025-01-15T09:13:45.202Z</time>
      </trkpt>
      <trkpt lat="48.909300" lon="2.160614">
        <ele>50.578273</ele>
        <time>2025-01-15T09:13:49.663Z</time>
      </trkpt>
      <trkpt lat="48.909369" lon="2.160621">
        <ele>50.505334</ele>
        <time>2025-01-15T09:13:50.967Z</time>
      </trkpt>
      <trkpt lat="48.909415" lon="2.160565">
        <ele>50.443197</ele>
        <time>2025-01-15T09:13:52.046Z</time>
      </trkpt>
      <trkpt lat="48.909428" lon="2.160481">
        <ele>50.380669</ele>
        <time>2025-01-15T09:13:53.093Z</time>
      </trkpt>
      <trkpt lat="48.909578" lon="2.160327">
        <ele>50.132660</ele>
        <time>2025-01-15T09:13:56.392Z</time>
      </trkpt>
      <trkpt lat="48.909941" lon="2.160117">
        <ele>49.600401</ele>
        <time>2025-01-15T09:14:03.478Z</time>
      </trkpt>
      <trkpt lat="48.910581" lon="2.159759">
        <ele>48.665848</ele>
        <time>2025-01-15T09:14:16.433Z</time>
      </trkpt>
      <trkpt lat="48.911425" lon="2.159319">
        <ele>47.818980</ele>
        <time>2025-01-15T09:14:34.791Z</time>
      </trkpt>
      <trkpt lat="48.911558" lon="2.159142">
        <ele>47.764816</ele>
        <time>2025-01-15T09:14:38.575Z</time>
      </trkpt>
      <trkpt lat="48.911618" lon="2.159019">
        <ele>47.733956</ele>
        <time>2025-01-15T09:14:40.757Z</time>
      </trkpt>
      <trkpt lat="48.911661" lon="2.158901">
        <ele>47.706773</ele>
        <time>2025-01-15T09:14:42.718Z</time>
      </trkpt>
      <trkpt lat="48.911685" lon="2.158643">
        <ele>47.654277</ele>
        <time>2025-01-15T09:14:46.505Z</time>
      </trkpt>
      <trkpt lat="48.911677" lon="2.158511">
        <ele>47.627571</ele>
        <time>2025-01-15T09:14:48.439Z</time>
      </trkpt>
      <trkpt lat="48.911513" lon="2.157647">
        <ele>47.446391</ele>
        <time>2025-01-15T09:15:01.704Z</time>
      </trkpt>
      <trkpt lat="48.911483" lon="2.157488">
        <ele>47.413064</ele>
        <time>2025-01-15T09:15:04.057Z</time>
      </trkpt>
      <trkpt lat="48.911322" lon="2.156548">
        <ele>47.119807</ele>
        <time>2025-01-15T09:15:17.253Z</time>
      </trkpt>
      <trkpt lat="48.911331" lon="2.156403">
        <ele>47.072411</ele>
        <time>2025-01-15T09:15:19.245Z</time>
      </trkpt>
      <trkpt lat="48.911418" lon="2.155718">
        <ele>46.845374</ele>
        <time>2025-01-15T09:15:28.890Z</time>
      </trkpt>
      <trkpt lat="48.911628" lon="2.154585">
        <ele>46.493056</ele>
        <time>2025-01-15T09:15:44.753Z</time>
      </trkpt>
      <trkpt lat="48.911516" lon="2.154314">
        <ele>46.527973</ele>
        <time>2025-01-15T09:15:49.360Z</time>
      </trkpt>
      <trkpt lat="48.911584" lon="2.154145">
        <ele>46.549586</ele>
        <time>2025-01-15T09:15:52.182Z</time>
      </trkpt>
      <trkpt lat="48.911747" lon="2.153437">
        <ele>46.631408</ele>
        <time>2025-01-15T09:16:02.946Z</time>
      </trkpt>
      <trkpt lat="48.911833" lon="2.152960">
        <ele>46.685356</ele>
        <time>2025-01-15T09:16:10.219Z</time>
      </trkpt>
      <trkpt lat="48.911862" lon="2.152819">
        <ele>46.701470</ele>
        <time>2025-01-15T09:16:12.577Z</time>
      </trkpt>
      <trkpt lat="48.911945" lon="2.152374">
        <ele>46.751922</ele>
        <time>2025-01-15T09:16:20.141Z</time>
      </trkpt>
      <trkpt lat="48.912028" lon="2.151930">
        <ele>46.901346</ele>
        <time>2025-01-15T09:16:28.501Z</time>
      </trkpt>
      <trkpt lat="48.912065" lon="2.151737">
        <ele>47.041077</ele>
        <time>2025-01-15T09:16:32.433Z</time>
      </trkpt>
      <trkpt lat="48.912133" lon="2.151702">
        <ele>47.116992</ele>
        <time>2025-01-15T09:16:34.601Z</time>
      </trkpt>
      <trkpt lat="48.912209" lon="2.151735">
        <ele>47.200573</ele>
        <time>2025-01-15T09:16:37.071Z</time>
      </trkpt>
      <trkpt lat="48.912336" lon="2.151701">
        <ele>47.336943</ele>
        <time>2025-01-15T09:16:41.059Z</time>
      </trkpt>
      <trkpt lat="48.912518" lon="2.151709">
        <ele>47.529494</ele>
        <time>2025-01-15T09:16:46.670Z</time>
      </trkpt>
      <trkpt lat="48.912575" lon="2.151717">
        <ele>47.590029</ele>
        <time>2025-01-15T09:16:48.365Z</time>
      </trkpt>
      <trkpt lat="48.912914" lon="2.151782">
        <ele>47.951368</ele>
        <time>2025-01-15T09:16:58.462Z</time>
      </trkpt>
      <trkpt lat="48.913245" lon="2.151899">
        <ele>48.310732</ele>
        <time>2025-01-15T09:17:07.750Z</time>
      </trkpt>
      <trkpt lat="48.913289" lon="2.151934">
        <ele>48.363238</ele>
        <time>2025-01-15T09:17:09.012Z</time>
      </trkpt>
      <trkpt lat="48.913306" lon="2.152083">
        <ele>48.468344</ele>
        <time>2025-01-15T09:17:11.524Z</time>
      </trkpt>
      <trkpt lat="48.913357" lon="2.152119">
        <ele>48.527799</ele>
        <time>2025-01-15T09:17:12.881Z</time>
      </trkpt>
      <trkpt lat="48.913408" lon="2.152167">
        <ele>48.591217</ele>
        <time>2025-01-15T09:17:14.319Z</time>
      </trkpt>
      <trkpt lat="48.913432" lon="2.152201">
        <ele>48.625895</ele>
        <time>2025-01-15T09:17:15.132Z</time>
      </trkpt>
      <trkpt lat="48.913543" lon="2.152152">
        <ele>48.690874</ele>
        <time>2025-01-15T09:17:17.856Z</time>
      </trkpt>
      <trkpt lat="48.913588" lon="2.152125">
        <ele>48.694925</ele>
        <time>2025-01-15T09:17:19.022Z</time>
      </trkpt>
      <trkpt lat="48.913592" lon="2.152070">
        <ele>48.697970</ele>
        <time>2025-01-15T09:17:19.885Z</time>
      </trkpt>
      <trkpt lat="48.913640" lon="2.152042">
        <ele>48.702275</ele>
        <time>2025-01-15T09:17:21.084Z</time>
      </trkpt>
      <trkpt lat="48.913718" lon="2.152054">
        <ele>48.708840</ele>
        <time>2025-01-15T09:17:22.969Z</time>
      </trkpt>
      <trkpt lat="48.914059" lon="2.152132">
        <ele>48.737715</ele>
        <time>2025-01-15T09:17:30.936Z</time>
      </trkpt>
      <trkpt lat="48.914296" lon="2.152203">
        <ele>48.757941</ele>
        <time>2025-01-15T09:17:36.196Z</time>
      </trkpt>
      <trkpt lat="48.914701" lon="2.152361">
        <ele>48.792952</ele>
        <time>2025-01-15T09:17:45.142Z</time>
      </trkpt>
      <trkpt lat="48.914904" lon="2.152469">
        <ele>48.810959</ele>
        <time>2025-01-15T09:17:49.828Z</time>
      </trkpt>
      <trkpt lat="48.915477" lon="2.152716">
        <ele>48.696439</ele>
        <time>2025-01-15T09:18:03.760Z</time>
      </trkpt>
      <trkpt lat="48.915694" lon="2.152860">
        <ele>48.581957</ele>
        <time>2025-01-15T09:18:09.200Z</time>
      </trkpt>
      <trkpt lat="48.915807" lon="2.153068">
        <ele>48.496192</ele>
        <time>2025-01-15T09:18:13.120Z</time>
      </trkpt>
      <trkpt lat="48.915885" lon="2.153152">
        <ele>48.449982</ele>
        <time>2025-01-15T09:18:15.164Z</time>
      </trkpt>
      <trkpt lat="48.915920" lon="2.153246">
        <ele>48.415648</ele>
        <time>2025-01-15T09:18:16.651Z</time>
      </trkpt>
      <trkpt lat="48.915946" lon="2.153254">
        <ele>48.402820</ele>
        <time>2025-01-15T09:18:17.223Z</time>
      </trkpt>
      <trkpt lat="48.915965" lon="2.153260">
        <ele>48.393436</ele>
        <time>2025-01-15T09:18:17.624Z</time>
      </trkpt>
      <trkpt lat="48.916009" lon="2.153274">
        <ele>48.371698</ele>
        <time>2025-01-15T09:18:18.559Z</time>
      </trkpt>
      <trkpt lat="48.916048" lon="2.153191">
        <ele>48.339272</ele>
        <time>2025-01-15T09:18:19.941Z</time>
      </trkpt>
      <trkpt lat="48.916185" lon="2.153046">
        <ele>48.258572</ele>
        <time>2025-01-15T09:18:23.361Z</time>
      </trkpt>
      <trkpt lat="48.916307" lon="2.152992">
        <ele>48.197129</ele>
        <time>2025-01-15T09:18:25.938Z</time>
      </trkpt>
      <trkpt lat="48.917229" lon="2.153092">
        <ele>47.456596</ele>
        <time>2025-01-15T09:18:44.125Z</time>
      </trkpt>
      <trkpt lat="48.917471" lon="2.153149">
        <ele>47.177716</ele>
        <time>2025-01-15T09:18:48.883Z</time>
      </trkpt>
      <trkpt lat="48.918210" lon="2.153398">
        <ele>46.315735</ele>
        <time>2025-01-15T09:19:03.653Z</time>
      </trkpt>
      <trkpt lat="48.918898" lon="2.153698">
        <ele>45.467246</ele>
        <time>2025-01-15T09:19:17.730Z</time>
      </trkpt>
      <trkpt lat="48.919306" lon="2.154018">
        <ele>44.902674</ele>
        <time>2025-01-15T09:19:26.817Z</time>
      </trkpt>
      <trkpt lat="48.919417" lon="2.154276">
        <ele>44.653424</ele>
        <time>2025-01-15T09:19:30.858Z</time>
      </trkpt>
      <trkpt lat="48.919505" lon="2.154394">
        <ele>44.509159</ele>
        <time>2025-01-15T09:19:33.184Z</time>
      </trkpt>
      <trkpt lat="48.919530" lon="2.154502">
        <ele>44.416610</ele>
        <time>2025-01-15T09:19:34.660Z</time>
      </trkpt>
      <trkpt lat="48.919559" lon="2.154519">
        <ele>44.378385</ele>
        <time>2025-01-15T09:19:35.280Z</time>
      </trkpt>
      <trkpt lat="48.919630" lon="2.154319">
        <ele>44.194652</ele>
        <time>2025-01-15T09:19:38.223Z</time>
      </trkpt>
      <trkpt lat="48.919745" lon="2.154258">
        <ele>44.044855</ele>
        <time>2025-01-15T09:19:40.580Z</time>
      </trkpt>
      <trkpt lat="48.919788" lon="2.154191">
        <ele>43.969159</ele>
        <time>2025-01-15T09:19:41.755Z</time>
      </trkpt>
      <trkpt lat="48.919820" lon="2.154075">
        <ele>43.867475</ele>
        <time>2025-01-15T09:19:43.328Z</time>
      </trkpt>
      <trkpt lat="48.919820" lon="2.153950">
        <ele>43.766444</ele>
        <time>2025-01-15T09:19:44.884Z</time>
      </trkpt>
      <trkpt lat="48.919773" lon="2.153812">
        <ele>43.597649</ele>
        <time>2025-01-15T09:19:46.801Z</time>
      </trkpt>
      <trkpt lat="48.919860" lon="2.153626">
        <ele>43.291072</ele>
        <time>2025-01-15T09:19:49.596Z</time>
      </trkpt>
      <trkpt lat="48.919859" lon="2.153523">
        <ele>43.152747</ele>
        <time>2025-01-15T09:19:50.831Z</time>
      </trkpt>
      <trkpt lat="48.919744" lon="2.152900">
        <ele>42.283792</ele>
        <time>2025-01-15T09:19:58.534Z</time>
      </trkpt>
      <trkpt lat="48.919796" lon="2.152769">
        <ele>42.078279</ele>
        <time>2025-01-15T09:20:00.339Z</time>
      </trkpt>
      <trkpt lat="48.919881" lon="2.152738">
        <ele>41.899663</ele>
        <time>2025-01-15T09:20:01.904Z</time>
      </trkpt>
      <trkpt lat="48.920419" lon="2.151960">
        <ele>40.383057</ele>
        <time>2025-01-15T09:20:25.656Z</time>
      </trkpt>
      <trkpt lat="48.920380" lon="2.151700">
        <ele>40.026578</ele>
        <time>2025-01-15T09:20:31.294Z</time>
      </trkpt>
      <trkpt lat="48.920245" lon="2.150690">
        <ele>39.045473</ele>
        <time>2025-01-15T09:20:53.618Z</time>
      </trkpt>
      <trkpt lat="48.920211" lon="2.149723">
        <ele>38.123669</ele>
        <time>2025-01-15T09:21:15.481Z</time>
      </trkpt>
      <trkpt lat="48.920257" lon="2.149028">
        <ele>37.458752</ele>
        <time>2025-01-15T09:21:31.246Z</time>
      </trkpt>
      <trkpt lat="48.920246" lon="2.146572">
        <ele>35.380672</ele>
        <time>2025-01-15T09:22:25.799Z</time>
      </trkpt>
      <trkpt lat="48.919995" lon="2.146321">
        <ele>35.014301</ele>
        <time>2025-01-15T09:22:35.927Z</time>
      </trkpt>
      <trkpt lat="48.919952" lon="2.146202">
        <ele>34.918599</ele>
        <time>2025-01-15T09:22:38.965Z</time>
      </trkpt>
      <trkpt lat="48.919939" lon="2.146054">
        <ele>34.813376</ele>
        <time>2025-01-15T09:22:42.274Z</time>
      </trkpt>
      <trkpt lat="48.920146" lon="2.145513">
        <ele>34.372214</ele>
        <time>2025-01-15T09:22:56.249Z</time>
      </trkpt>
      <trkpt lat="48.920146" lon="2.145513">
        <ele>34.372214</ele>
        <time>2025-01-15T09:22:56.249Z</time>
      </trkpt>
      <trkpt lat="48.920306" lon="2.145234">
        <ele>34.111260</ele>
        <time>2025-01-15T09:23:04.554Z</time>
      </trkpt>
      <trkpt lat="48.920656" lon="2.144316">
        <ele>33.363349</ele>
        <time>2025-01-15T09:23:28.776Z</time>
      </trkpt>
      <trkpt lat="48.921042" lon="2.143540">
        <ele>33.002397</ele>
        <time>2025-01-15T09:23:51.171Z</time>
      </trkpt>
      <trkpt lat="48.921252" lon="2.142995">
        <ele>32.842549</ele>
        <time>2025-01-15T09:24:05.804Z</time>
      </trkpt>
      <trkpt lat="48.921255" lon="2.142839">
        <ele>32.803062</ele>
        <time>2025-01-15T09:24:09.456Z</time>
      </trkpt>
      <trkpt lat="48.921205" lon="2.142718">
        <ele>32.766898</ele>
        <time>2025-01-15T09:24:12.821Z</time>
      </trkpt>
      <trkpt lat="48.920668" lon="2.141986">
        <ele>32.495011</ele>
        <time>2025-01-15T09:24:39.181Z</time>
      </trkpt>
      <trkpt lat="48.918458" lon="2.139620">
        <ele>33.661222</ele>
        <time>2025-01-15T09:26:27.183Z</time>
      </trkpt>
      <trkpt lat="48.917773" lon="2.138860">
        <ele>33.940757</ele>
        <time>2025-01-15T09:26:47.078Z</time>
      </trkpt>
      <trkpt lat="48.917667" lon="2.138749">
        <ele>33.906923</ele>
        <time>2025-01-15T09:26:49.848Z</time>
      </trkpt>
      <trkpt lat="48.917628" lon="2.138685">
        <ele>33.876000</ele>
        <time>2025-01-15T09:26:51.082Z</time>
      </trkpt>
      <trkpt lat="48.917617" lon="2.138563">
        <ele>33.832372</ele>
        <time>2025-01-15T09:26:52.810Z</time>
      </trkpt>
      <trkpt lat="48.917744" lon="2.138218">
        <ele>33.692273</ele>
        <time>2025-01-15T09:26:58.277Z</time>
      </trkpt>
      <trkpt lat="48.917754" lon="2.138081">
        <ele>33.643438</ele>
        <time>2025-01-15T09:27:00.159Z</time>
      </trkpt>
      <trkpt lat="48.917718" lon="2.137936">
        <ele>33.588522</ele>
        <time>2025-01-15T09:27:02.268Z</time>
      </trkpt>
      <trkpt lat="48.917647" lon="2.137826">
        <ele>33.533897</ele>
        <time>2025-01-15T09:27:04.356Z</time>
      </trkpt>
      <trkpt lat="48.917753" lon="2.137698">
        <ele>33.460942</ele>
        <time>2025-01-15T09:27:07.107Z</time>
      </trkpt>
      <trkpt lat="48.917863" lon="2.137666">
        <ele>33.400564</ele>
        <time>2025-01-15T09:27:09.377Z</time>
      </trkpt>
      <trkpt lat="48.917992" lon="2.137729">
        <ele>33.327523</ele>
        <time>2025-01-15T09:27:12.084Z</time>
      </trkpt>
      <trkpt lat="48.918090" lon="2.137828">
        <ele>33.264106</ele>
        <time>2025-01-15T09:27:14.410Z</time>
      </trkpt>
      <trkpt lat="48.919183" lon="2.135124">
        <ele>32.070511</ele>
        <time>2025-01-15T09:27:57.577Z</time>
      </trkpt>
      <trkpt lat="48.919183" lon="2.135124">
        <ele>32.070511</ele>
        <time>2025-01-15T09:27:57.588Z</time>
      </trkpt>
      <trkpt lat="48.919252" lon="2.135001">
        <ele>32.008546</ele>
        <time>2025-01-15T09:27:59.856Z</time>
      </trkpt>
      <trkpt lat="48.920339" lon="2.133117">
        <ele>31.067989</ele>
        <time>2025-01-15T09:28:34.401Z</time>
      </trkpt>
      <trkpt lat="48.920839" lon="2.132160">
        <ele>30.183463</ele>
        <time>2025-01-15T09:28:50.549Z</time>
      </trkpt>
      <trkpt lat="48.920884" lon="2.132066">
        <ele>30.078093</ele>
        <time>2025-01-15T09:28:52.069Z</time>
      </trkpt>
      <trkpt lat="48.921073" lon="2.131656">
        <ele>29.624336</ele>
        <time>2025-01-15T09:28:58.543Z</time>
      </trkpt>
      <trkpt lat="48.921080" lon="2.131456">
        <ele>29.442877</ele>
        <time>2025-01-15T09:29:01.055Z</time>
      </trkpt>
      <trkpt lat="48.921004" lon="2.131294">
        <ele>29.262535</ele>
        <time>2025-01-15T09:29:03.496Z</time>
      </trkpt>
      <trkpt lat="48.921046" lon="2.131203">
        <ele>29.161782</ele>
        <time>2025-01-15T09:29:04.828Z</time>
      </trkpt>
      <trkpt lat="48.921075" lon="2.131140">
        <ele>29.092092</ele>
        <time>2025-01-15T09:29:05.764Z</time>
      </trkpt>
      <trkpt lat="48.921123" lon="2.131035">
        <ele>28.976203</ele>
        <time>2025-01-15T09:29:07.299Z</time>
      </trkpt>
      <trkpt lat="48.921204" lon="2.131057">
        <ele>28.862756</ele>
        <time>2025-01-15T09:29:08.807Z</time>
      </trkpt>
      <trkpt lat="48.921367" lon="2.131028">
        <ele>28.636480</ele>
        <time>2025-01-15T09:29:11.787Z</time>
      </trkpt>
      <trkpt lat="48.921428" lon="2.130974">
        <ele>28.539178</ele>
        <time>2025-01-15T09:29:13.058Z</time>
      </trkpt>
      <trkpt lat="48.921495" lon="2.131056">
        <ele>28.419421</ele>
        <time>2025-01-15T09:29:14.655Z</time>
      </trkpt>
      <trkpt lat="48.921610" lon="2.130841">
        <ele>28.138221</ele>
        <time>2025-01-15T09:29:18.190Z</time>
      </trkpt>
      <trkpt lat="48.921642" lon="2.130787">
        <ele>28.064463</ele>
        <time>2025-01-15T09:29:19.117Z</time>
      </trkpt>
      <trkpt lat="48.922049" lon="2.130152">
        <ele>27.164693</ele>
        <time>2025-01-15T09:29:30.511Z</time>
      </trkpt>
      <trkpt lat="48.922373" lon="2.129690">
        <ele>26.479311</ele>
        <time>2025-01-15T09:29:39.214Z</time>
      </trkpt>
      <trkpt lat="48.922402" lon="2.129733">
        <ele>26.416810</ele>
        <time>2025-01-15T09:29:40.010Z</time>
      </trkpt>
      <trkpt lat="48.922426" lon="2.129768">
        <ele>26.365499</ele>
        <time>2025-01-15T09:29:40.668Z</time>
      </trkpt>
      <trkpt lat="48.923710" lon="2.127778">
        <ele>24.579382</ele>
        <time>2025-01-15T09:30:44.348Z</time>
      </trkpt>
      <trkpt lat="48.923711" lon="2.127778">
        <ele>24.578598</ele>
        <time>2025-01-15T09:30:44.360Z</time>
      </trkpt>
      <trkpt lat="48.924164" lon="2.127122">
        <ele>24.194514</ele>
        <time>2025-01-15T09:31:06.681Z</time>
      </trkpt>
      <trkpt lat="48.924017" lon="2.126934">
        <ele>24.145948</ele>
        <time>2025-01-15T09:31:11.236Z</time>
      </trkpt>
      <trkpt lat="48.923907" lon="2.126855">
        <ele>24.115183</ele>
        <time>2025-01-15T09:31:14.131Z</time>
      </trkpt>
      <trkpt lat="48.921895" lon="2.124730">
        <ele>23.711787</ele>
        <time>2025-01-15T09:32:13.613Z</time>
      </trkpt>
      <trkpt lat="48.921066" lon="2.123941">
        <ele>23.731906</ele>
        <time>2025-01-15T09:32:37.866Z</time>
      </trkpt>
      <trkpt lat="48.920104" lon="2.123105">
        <ele>23.935045</ele>
        <time>2025-01-15T09:33:05.993Z</time>
      </trkpt>
      <trkpt lat="48.919891" lon="2.122948">
        <ele>23.978444</ele>
        <time>2025-01-15T09:33:12.228Z</time>
      </trkpt>
      <trkpt lat="48.919459" lon="2.122515">
        <ele>24.248669</ele>
        <time>2025-01-15T09:33:26.144Z</time>
      </trkpt>
      <trkpt lat="48.918378" lon="2.121592">
        <ele>25.011699</ele>
        <time>2025-01-15T09:34:02.038Z</time>
      </trkpt>
      <trkpt lat="48.917871" lon="2.121198">
        <ele>24.967468</ele>
        <time>2025-01-15T09:34:17.381Z</time>
      </trkpt>
      <trkpt lat="48.915900" lon="2.119838">
        <ele>24.200541</ele>
        <time>2025-01-15T09:35:07.254Z</time>
      </trkpt>
      <trkpt lat="48.915646" lon="2.119695">
        <ele>24.094473</ele>
        <time>2025-01-15T09:35:13.641Z</time>
      </trkpt>
      <trkpt lat="48.915279" lon="2.119398">
        <ele>23.931677</ele>
        <time>2025-01-15T09:35:23.626Z</time>
      </trkpt>
      <trkpt lat="48.914641" lon="2.118972">
        <ele>23.685667</ele>
        <time>2025-01-15T09:35:40.707Z</time>
      </trkpt>
      <trkpt lat="48.914325" lon="2.118727">
        <ele>23.572791</ele>
        <time>2025-01-15T09:35:49.225Z</time>
      </trkpt>
      <trkpt lat="48.914208" lon="2.118686">
        <ele>23.534578</ele>
        <time>2025-01-15T09:35:52.101Z</time>
      </trkpt>
      <trkpt lat="48.913183" lon="2.117963">
        <ele>23.226028</ele>
        <time>2025-01-15T09:36:18.620Z</time>
      </trkpt>
      <trkpt lat="48.912500" lon="2.117525">
        <ele>23.210162</ele>
        <time>2025-01-15T09:36:36.331Z</time>
      </trkpt>
      <trkpt lat="48.911981" lon="2.117265">
        <ele>23.198466</ele>
        <time>2025-01-15T09:36:50.210Z</time>
      </trkpt>
      <trkpt lat="48.911547" lon="2.116981">
        <ele>23.232390</ele>
        <time>2025-01-15T09:37:02.857Z</time>
      </trkpt>
      <trkpt lat="48.911290" lon="2.116872">
        <ele>23.314849</ele>
        <time>2025-01-15T09:37:10.265Z</time>
      </trkpt>
      <trkpt lat="48.911166" lon="2.116739">
        <ele>23.361739</ele>
        <time>2025-01-15T09:37:14.456Z</time>
      </trkpt>
      <trkpt lat="48.911024" lon="2.116661">
        <ele>23.408399</ele>
        <time>2025-01-15T09:37:18.606Z</time>
      </trkpt>
      <trkpt lat="48.910941" lon="2.116675">
        <ele>23.434209</ele>
        <time>2025-01-15T09:37:20.910Z</time>
      </trkpt>
      <trkpt lat="48.910755" lon="2.116495">
        <ele>23.502339</ele>
        <time>2025-01-15T09:37:26.873Z</time>
      </trkpt>
      <trkpt lat="48.910442" lon="2.116327">
        <ele>23.604920</ele>
        <time>2025-01-15T09:37:35.591Z</time>
      </trkpt>
      <trkpt lat="48.910381" lon="2.116324">
        <ele>23.623783</ele>
        <time>2025-01-15T09:37:37.175Z</time>
      </trkpt>
      <trkpt lat="48.909185" lon="2.115576">
        <ele>23.794665</ele>
        <time>2025-01-15T09:38:08.845Z</time>
      </trkpt>
      <trkpt lat="48.908822" lon="2.115474">
        <ele>23.814298</ele>
        <time>2025-01-15T09:38:17.938Z</time>
      </trkpt>
      <trkpt lat="48.908681" lon="2.115392">
        <ele>23.822327</ele>
        <time>2025-01-15T09:38:21.781Z</time>
      </trkpt>
      <trkpt lat="48.908275" lon="2.115260">
        <ele>23.852784</ele>
        <time>2025-01-15T09:38:32.577Z</time>
      </trkpt>
      <trkpt lat="48.907989" lon="2.115111">
        <ele>23.951385</ele>
        <time>2025-01-15T09:38:40.553Z</time>
      </trkpt>
      <trkpt lat="48.907780" lon="2.115073">
        <ele>24.020039</ele>
        <time>2025-01-15T09:38:46.172Z</time>
      </trkpt>
      <trkpt lat="48.907194" lon="2.114836">
        <ele>24.217811</ele>
        <time>2025-01-15T09:39:02.472Z</time>
      </trkpt>
      <trkpt lat="48.907066" lon="2.114812">
        <ele>24.259877</ele>
        <time>2025-01-15T09:39:05.957Z</time>
      </trkpt>
      <trkpt lat="48.906647" lon="2.114709">
        <ele>24.398314</ele>
        <time>2025-01-15T09:39:17.146Z</time>
      </trkpt>
      <trkpt lat="48.905965" lon="2.114457">
        <ele>24.526735</ele>
        <time>2025-01-15T09:39:34.764Z</time>
      </trkpt>
      <trkpt lat="48.905380" lon="2.114155">
        <ele>24.625856</ele>
        <time>2025-01-15T09:39:50.244Z</time>
      </trkpt>
      <trkpt lat="48.905092" lon="2.113956">
        <ele>24.676609</ele>
        <time>2025-01-15T09:39:58.431Z</time>
      </trkpt>
      <trkpt lat="48.904576" lon="2.113728">
        <ele>24.700027</ele>
        <time>2025-01-15T09:40:12.592Z</time>
      </trkpt>
      <trkpt lat="48.904536" lon="2.113607">
        <ele>24.694286</ele>
        <time>2025-01-15T09:40:14.879Z</time>
      </trkpt>
      <trkpt lat="48.904452" lon="2.113545">
        <ele>24.688265</ele>
        <time>2025-01-15T09:40:17.265Z</time>
      </trkpt>
      <trkpt lat="48.904439" lon="2.113537">
        <ele>24.687360</ele>
        <time>2025-01-15T09:40:17.608Z</time>
      </trkpt>
      <trkpt lat="48.904019" lon="2.113476">
        <ele>24.660150</ele>
        <time>2025-01-15T09:40:28.280Z</time>
      </trkpt>
      <trkpt lat="48.903044" lon="2.113058">
        <ele>24.599514</ele>
        <time>2025-01-15T09:40:52.461Z</time>
      </trkpt>
      <trkpt lat="48.902931" lon="2.112914">
        <ele>24.596196</ele>
        <time>2025-01-15T09:40:55.537Z</time>
      </trkpt>
      <trkpt lat="48.902829" lon="2.112845">
        <ele>24.593683</ele>
        <time>2025-01-15T09:40:57.854Z</time>
      </trkpt>
      <trkpt lat="48.902725" lon="2.112852">
        <ele>24.591340</ele>
        <time>2025-01-15T09:41:00.035Z</time>
      </trkpt>
      <trkpt lat="48.902618" lon="2.112911">
        <ele>24.588778</ele>
        <time>2025-01-15T09:41:02.483Z</time>
      </trkpt>
      <trkpt lat="48.902599" lon="2.112846">
        <ele>24.587726</ele>
        <time>2025-01-15T09:41:03.563Z</time>
      </trkpt>
      <trkpt lat="48.902436" lon="2.112832">
        <ele>24.584051</ele>
        <time>2025-01-15T09:41:07.532Z</time>
      </trkpt>
      <trkpt lat="48.902146" lon="2.112679">
        <ele>24.577142</ele>
        <time>2025-01-15T09:41:15.085Z</time>
      </trkpt>
      <trkpt lat="48.901815" lon="2.112362">
        <ele>24.568337</ele>
        <time>2025-01-15T09:41:25.254Z</time>
      </trkpt>
      <trkpt lat="48.901545" lon="2.112022">
        <ele>24.575233</ele>
        <time>2025-01-15T09:41:34.877Z</time>
      </trkpt>
      <trkpt lat="48.900463" lon="2.110576">
        <ele>24.979866</ele>
        <time>2025-01-15T09:42:13.155Z</time>
      </trkpt>
      <trkpt lat="48.900141" lon="2.110256">
        <ele>25.086044</ele>
        <time>2025-01-15T09:42:22.450Z</time>
      </trkpt>
      <trkpt lat="48.899998" lon="2.110148">
        <ele>25.126889</ele>
        <time>2025-01-15T09:42:26.355Z</time>
      </trkpt>
      <trkpt lat="48.899611" lon="2.109971">
        <ele>25.230273</ele>
        <time>2025-01-15T09:42:36.309Z</time>
      </trkpt>
      <trkpt lat="48.899410" lon="2.109912">
        <ele>25.282644</ele>
        <time>2025-01-15T09:42:41.656Z</time>
      </trkpt>
      <trkpt lat="48.899004" lon="2.109893">
        <ele>25.386561</ele>
        <time>2025-01-15T09:42:52.457Z</time>
      </trkpt>
      <trkpt lat="48.899002" lon="2.109969">
        <ele>25.399353</ele>
        <time>2025-01-15T09:42:53.790Z</time>
      </trkpt>
      <trkpt lat="48.898498" lon="2.109866">
        <ele>25.523724</ele>
        <time>2025-01-15T09:43:06.539Z</time>
      </trkpt>
      <trkpt lat="48.898414" lon="2.109881">
        <ele>25.494304</ele>
        <time>2025-01-15T09:43:08.709Z</time>
      </trkpt>
      <trkpt lat="48.898288" lon="2.109956">
        <ele>25.447239</ele>
        <time>2025-01-15T09:43:12.139Z</time>
      </trkpt>
      <trkpt lat="48.898245" lon="2.109929">
        <ele>25.431057</ele>
        <time>2025-01-15T09:43:13.259Z</time>
      </trkpt>
      <trkpt lat="48.898016" lon="2.109931">
        <ele>25.351399</ele>
        <time>2025-01-15T09:43:18.572Z</time>
      </trkpt>
      <trkpt lat="48.897795" lon="2.109937">
        <ele>25.274512</ele>
        <time>2025-01-15T09:43:23.344Z</time>
      </trkpt>
      <trkpt lat="48.897672" lon="2.109939">
        <ele>25.231724</ele>
        <time>2025-01-15T09:43:25.931Z</time>
      </trkpt>
      <trkpt lat="48.897271" lon="2.109941">
        <ele>25.092237</ele>
        <time>2025-01-15T09:43:34.131Z</time>
      </trkpt>
      <trkpt lat="48.897214" lon="2.109941">
        <ele>25.072409</ele>
        <time>2025-01-15T09:43:35.293Z</time>
      </trkpt>
      <trkpt lat="48.896754" lon="2.109888">
        <ele>24.911941</ele>
        <time>2025-01-15T09:43:44.499Z</time>
      </trkpt>
      <trkpt lat="48.896343" lon="2.109816">
        <ele>24.751918</ele>
        <time>2025-01-15T09:43:52.758Z</time>
      </trkpt>
      <trkpt lat="48.895801" lon="2.109873">
        <ele>24.540098</ele>
        <time>2025-01-15T09:44:03.956Z</time>
      </trkpt>
      <trkpt lat="48.895619" lon="2.109747">
        <ele>24.462136</ele>
        <time>2025-01-15T09:44:08.384Z</time>
      </trkpt>
      <trkpt lat="48.895499" lon="2.109646">
        <ele>24.408665</ele>
        <time>2025-01-15T09:44:11.553Z</time>
      </trkpt>
      <trkpt lat="48.894258" lon="2.109598">
        <ele>24.077029</ele>
        <time>2025-01-15T09:44:39.461Z</time>
      </trkpt>
      <trkpt lat="48.893874" lon="2.109606">
        <ele>24.010122</ele>
        <time>2025-01-15T09:44:48.178Z</time>
      </trkpt>
      <trkpt lat="48.893711" lon="2.109603">
        <ele>23.981722</ele>
        <time>2025-01-15T09:44:51.652Z</time>
      </trkpt>
      <trkpt lat="48.893688" lon="2.109602">
        <ele>23.977713</ele>
        <time>2025-01-15T09:44:52.211Z</time>
      </trkpt>
      <trkpt lat="48.893607" lon="2.109599">
        <ele>23.963597</ele>
        <time>2025-01-15T09:44:54.130Z</time>
      </trkpt>
      <trkpt lat="48.893351" lon="2.109576">
        <ele>23.918919</ele>
        <time>2025-01-15T09:45:00.205Z</time>
      </trkpt>
      <trkpt lat="48.892767" lon="2.109403">
        <ele>23.666188</ele>
        <time>2025-01-15T09:45:14.130Z</time>
      </trkpt>
      <trkpt lat="48.892775" lon="2.109302">
        <ele>23.630237</ele>
        <time>2025-01-15T09:45:15.699Z</time>
      </trkpt>
      <trkpt lat="48.892788" lon="2.109128">
        <ele>23.568350</ele>
        <time>2025-01-15T09:45:18.377Z</time>
      </trkpt>
      <trkpt lat="48.892770" lon="2.109125">
        <ele>23.558617</ele>
        <time>2025-01-15T09:45:18.811Z</time>
      </trkpt>
      <trkpt lat="48.892779" lon="2.109040">
        <ele>23.528191</ele>
        <time>2025-01-15T09:45:20.131Z</time>
      </trkpt>
      <trkpt lat="48.892466" lon="2.109018">
        <ele>23.359771</ele>
        <time>2025-01-15T09:45:27.306Z</time>
      </trkpt>
      <trkpt lat="48.891888" lon="2.108969">
        <ele>23.048607</ele>
        <time>2025-01-15T09:45:40.602Z</time>
      </trkpt>
      <trkpt lat="48.891604" lon="2.108992">
        <ele>22.909554</ele>
        <time>2025-01-15T09:45:47.226Z</time>
      </trkpt>
      <trkpt lat="48.890843" lon="2.109172">
        <ele>22.731684</ele>
        <time>2025-01-15T09:46:05.509Z</time>
      </trkpt>
      <trkpt lat="48.890545" lon="2.109298">
        <ele>22.660249</ele>
        <time>2025-01-15T09:46:13.007Z</time>
      </trkpt>
      <trkpt lat="48.890155" lon="2.109543">
        <ele>22.562796</ele>
        <time>2025-01-15T09:46:23.377Z</time>
      </trkpt>
      <trkpt lat="48.889969" lon="2.109697">
        <ele>22.513885</ele>
        <time>2025-01-15T09:46:28.626Z</time>
      </trkpt>
      <trkpt lat="48.889931" lon="2.109775">
        <ele>22.504500</ele>
        <time>2025-01-15T09:46:30.207Z</time>
      </trkpt>
      <trkpt lat="48.889644" lon="2.110033">
        <ele>22.503695</ele>
        <time>2025-01-15T09:46:38.480Z</time>
      </trkpt>
      <trkpt lat="48.887627" lon="2.111697">
        <ele>22.663227</ele>
        <time>2025-01-15T09:47:35.209Z</time>
      </trkpt>
      <trkpt lat="48.887149" lon="2.112134">
        <ele>22.769832</ele>
        <time>2025-01-15T09:47:50.173Z</time>
      </trkpt>
      <trkpt lat="48.887074" lon="2.112300">
        <ele>22.795147</ele>
        <time>2025-01-15T09:47:53.691Z</time>
      </trkpt>
      <trkpt lat="48.886478" lon="2.112824">
        <ele>22.956572</ele>
        <time>2025-01-15T09:48:11.777Z</time>
      </trkpt>
      <trkpt lat="48.885614" lon="2.113610">
        <ele>23.218425</ele>
        <time>2025-01-15T09:48:35.216Z</time>
      </trkpt>
      <trkpt lat="48.884458" lon="2.114746">
        <ele>23.467055</ele>
        <time>2025-01-15T09:49:07.955Z</time>
      </trkpt>
      <trkpt lat="48.884072" lon="2.115086">
        <ele>23.535126</ele>
        <time>2025-01-15T09:49:18.121Z</time>
      </trkpt>
      <trkpt lat="48.883951" lon="2.115163">
        <ele>23.555142</ele>
        <time>2025-01-15T09:49:21.017Z</time>
      </trkpt>
      <trkpt lat="48.882962" lon="2.115841">
        <ele>23.306149</ele>
        <time>2025-01-15T09:49:47.024Z</time>
      </trkpt>
      <trkpt lat="48.882578" lon="2.116055">
        <ele>23.176058</ele>
        <time>2025-01-15T09:49:56.665Z</time>
      </trkpt>
      <trkpt lat="48.881588" lon="2.116858">
        <ele>22.778164</ele>
        <time>2025-01-15T09:50:23.177Z</time>
      </trkpt>
      <trkpt lat="48.881501" lon="2.116952">
        <ele>22.737080</ele>
        <time>2025-01-15T09:50:25.667Z</time>
      </trkpt>
      <trkpt lat="48.881140" lon="2.117519">
        <ele>22.537295</ele>
        <time>2025-01-15T09:50:37.755Z</time>
      </trkpt>
      <trkpt lat="48.880434" lon="2.118437">
        <ele>22.368398</ele>
        <time>2025-01-15T09:50:59.944Z</time>
      </trkpt>
      <trkpt lat="48.879446" lon="2.119261">
        <ele>22.510730</ele>
        <time>2025-01-15T09:51:28.893Z</time>
      </trkpt>
      <trkpt lat="48.879045" lon="2.119716">
        <ele>22.624413</ele>
        <time>2025-01-15T09:51:42.313Z</time>
      </trkpt>
      <trkpt lat="48.878014" lon="2.121049">
        <ele>23.141088</ele>
        <time>2025-01-15T09:52:18.796Z</time>
      </trkpt>
      <trkpt lat="48.877511" lon="2.121814">
        <ele>23.240672</ele>
        <time>2025-01-15T09:52:37.423Z</time>
      </trkpt>
      <trkpt lat="48.876770" lon="2.122729">
        <ele>23.250995</ele>
        <time>2025-01-15T09:53:01.026Z</time>
      </trkpt>
      <trkpt lat="48.876008" lon="2.123595">
        <ele>23.132015</ele>
        <time>2025-01-15T09:53:23.578Z</time>
      </trkpt>
      <trkpt lat="48.875773" lon="2.123826">
        <ele>23.071690</ele>
        <time>2025-01-15T09:53:30.199Z</time>
      </trkpt>
      <trkpt lat="48.875450" lon="2.124222">
        <ele>22.982242</ele>
        <time>2025-01-15T09:53:40.107Z</time>
      </trkpt>
      <trkpt lat="48.875216" lon="2.124561">
        <ele>22.912565</ele>
        <time>2025-01-15T09:53:47.945Z</time>
      </trkpt>
      <trkpt lat="48.874288" lon="2.126124">
        <ele>22.955688</ele>
        <time>2025-01-15T09:54:23.351Z</time>
      </trkpt>
      <trkpt lat="48.873850" lon="2.126805">
        <ele>23.001954</ele>
        <time>2025-01-15T09:54:39.314Z</time>
      </trkpt>
      <trkpt lat="48.872823" lon="2.128359">
        <ele>22.723557</ele>
        <time>2025-01-15T09:55:10.460Z</time>
      </trkpt>
      <trkpt lat="48.872016" lon="2.129905">
        <ele>22.542732</ele>
        <time>2025-01-15T09:55:38.650Z</time>
      </trkpt>
      <trkpt lat="48.871801" lon="2.130377">
        <ele>22.497401</ele>
        <time>2025-01-15T09:55:47.093Z</time>
      </trkpt>
      <trkpt lat="48.871603" lon="2.130907">
        <ele>22.449276</ele>
        <time>2025-01-15T09:55:56.131Z</time>
      </trkpt>
      <trkpt lat="48.871434" lon="2.131450">
        <ele>22.466578</ele>
        <time>2025-01-15T09:56:04.666Z</time>
      </trkpt>
      <trkpt lat="48.871229" lon="2.132244">
        <ele>22.510445</ele>
        <time>2025-01-15T09:56:16.793Z</time>
      </trkpt>
      <trkpt lat="48.871086" lon="2.133099">
        <ele>22.555816</ele>
        <time>2025-01-15T09:56:30.079Z</time>
      </trkpt>
      <trkpt lat="48.870921" lon="2.134446">
        <ele>22.868742</ele>
        <time>2025-01-15T09:56:52.348Z</time>
      </trkpt>
      <trkpt lat="48.870830" lon="2.135201">
        <ele>23.122802</ele>
        <time>2025-01-15T09:57:05.164Z</time>
      </trkpt>
      <trkpt lat="48.870776" lon="2.136022">
        <ele>23.395901</ele>
        <time>2025-01-15T09:57:17.603Z</time>
      </trkpt>
      <trkpt lat="48.870770" lon="2.136855">
        <ele>23.955488</ele>
        <time>2025-01-15T09:57:31.710Z</time>
      </trkpt>
      <trkpt lat="48.870781" lon="2.137300">
        <ele>24.329212</ele>
        <time>2025-01-15T09:57:40.394Z</time>
      </trkpt>
      <trkpt lat="48.870786" lon="2.137806">
        <ele>24.753914</ele>
        <time>2025-01-15T09:57:50.341Z</time>
      </trkpt>
      <trkpt lat="48.870840" lon="2.137799">
        <ele>24.823063</ele>
        <time>2025-01-15T09:57:52.193Z</time>
      </trkpt>
      <trkpt lat="48.871016" lon="2.138008">
        <ele>25.108005</ele>
        <time>2025-01-15T09:57:59.431Z</time>
      </trkpt>
      <trkpt lat="48.871440" lon="2.137941">
        <ele>25.651901</ele>
        <time>2025-01-15T09:58:13.897Z</time>
      </trkpt>
      <trkpt lat="48.871636" lon="2.137896">
        <ele>25.802740</ele>
        <time>2025-01-15T09:58:20.485Z</time>
      </trkpt>
      <trkpt lat="48.872154" lon="2.137963">
        <ele>25.916240</ele>
        <time>2025-01-15T09:58:35.876Z</time>
      </trkpt>
      <trkpt lat="48.872088" lon="2.137816">
        <ele>25.941798</ele>
        <time>2025-01-15T09:58:44.031Z</time>
      </trkpt>
      <trkpt lat="48.871815" lon="2.137666">
        <ele>26.005173</ele>
        <time>2025-01-15T09:59:04.165Z</time>
      </trkpt>
      <trkpt lat="48.871173" lon="2.137474">
        <ele>26.148023</ele>
        <time>2025-01-15T09:59:49.650Z</time>
      </trkpt>
      <trkpt lat="48.871173" lon="2.137474">
        <ele>26.148023</ele>
        <time>2025-01-15T09:59:49.663Z</time>
      </trkpt>
      <trkpt lat="48.870935" lon="2.137442">
        <ele>26.207089</ele>
        <time>2025-01-15T10:00:06.267Z</time>
      </trkpt>
      <trkpt lat="48.870216" lon="2.137403">
        <ele>26.406136</ele>
        <time>2025-01-15T10:00:56.288Z</time>
      </trkpt>
      <trkpt lat="48.869467" lon="2.137363">
        <ele>26.613484</ele>
        <time>2025-01-15T10:01:48.341Z</time>
      </trkpt>
      <trkpt lat="48.868989" lon="2.137350">
        <ele>26.736444</ele>
        <time>2025-01-15T10:02:21.586Z</time>
      </trkpt>
      <trkpt lat="48.868928" lon="2.137472">
        <ele>26.760815</ele>
        <time>2025-01-15T10:02:28.622Z</time>
      </trkpt>
      <trkpt lat="48.868897" lon="2.137466">
        <ele>26.768370</ele>
        <time>2025-01-15T10:02:30.751Z</time>
      </trkpt>
      <trkpt lat="48.868923" lon="2.137247">
        <ele>26.803761</ele>
        <time>2025-01-15T10:02:34.078Z</time>
      </trkpt>
      <trkpt lat="48.868782" lon="2.137239">
        <ele>26.837874</ele>
        <time>2025-01-15T10:02:37.314Z</time>
      </trkpt>
      <trkpt lat="48.868651" lon="2.137227">
        <ele>26.869603</ele>
        <time>2025-01-15T10:02:40.277Z</time>
      </trkpt>
      <trkpt lat="48.867738" lon="2.137182">
        <ele>27.090454</ele>
        <time>2025-01-15T10:03:01.036Z</time>
      </trkpt>
      <trkpt lat="48.867676" lon="2.137179">
        <ele>27.105451</ele>
        <time>2025-01-15T10:03:02.616Z</time>
      </trkpt>
      <trkpt lat="48.867674" lon="2.137274">
        <ele>27.165996</ele>
        <time>2025-01-15T10:03:04.191Z</time>
      </trkpt>
      <trkpt lat="48.867647" lon="2.138071">
        <ele>27.712502</ele>
        <time>2025-01-15T10:03:19.460Z</time>
      </trkpt>
      <trkpt lat="48.867616" lon="2.139243">
        <ele>28.515733</ele>
        <time>2025-01-15T10:03:40.277Z</time>
      </trkpt>
      <trkpt lat="48.867613" lon="2.139308">
        <ele>28.560354</ele>
        <time>2025-01-15T10:03:41.378Z</time>
      </trkpt>
      <trkpt lat="48.867556" lon="2.139330">
        <ele>28.621576</ele>
        <time>2025-01-15T10:03:42.868Z</time>
      </trkpt>
      <trkpt lat="48.867485" lon="2.139356">
        <ele>28.697604</ele>
        <time>2025-01-15T10:03:44.729Z</time>
      </trkpt>
      <trkpt lat="48.867556" lon="2.140568">
        <ele>29.976949</ele>
        <time>2025-01-15T10:04:08.338Z</time>
      </trkpt>
      <trkpt lat="48.867602" lon="2.141193">
        <ele>30.755918</ele>
        <time>2025-01-15T10:04:22.618Z</time>
      </trkpt>
      <trkpt lat="48.867367" lon="2.141239">
        <ele>31.202070</ele>
        <time>2025-01-15T10:04:30.739Z</time>
      </trkpt>
      <trkpt lat="48.867099" lon="2.141161">
        <ele>31.715871</ele>
        <time>2025-01-15T10:04:39.960Z</time>
      </trkpt>
      <trkpt lat="48.867087" lon="2.141235">
        <ele>31.810274</ele>
        <time>2025-01-15T10:04:41.575Z</time>
      </trkpt>
      <trkpt lat="48.867118" lon="2.141588">
        <ele>32.251391</ele>
        <time>2025-01-15T10:04:49.398Z</time>
      </trkpt>
      <trkpt lat="48.867195" lon="2.142033">
        <ele>32.289941</ele>
        <time>2025-01-15T10:04:59.338Z</time>
      </trkpt>
      <trkpt lat="48.867265" lon="2.142309">
        <ele>32.228665</ele>
        <time>2025-01-15T10:05:04.905Z</time>
      </trkpt>
      <trkpt lat="48.867416" lon="2.143432">
        <ele>31.991224</ele>
        <time>2025-01-15T10:05:19.946Z</time>
      </trkpt>
      <trkpt lat="48.867503" lon="2.143738">
        <ele>31.922168</ele>
        <time>2025-01-15T10:05:24.109Z</time>
      </trkpt>
      <trkpt lat="48.867632" lon="2.144045">
        <ele>31.846706</ele>
        <time>2025-01-15T10:05:28.674Z</time>
      </trkpt>
      <trkpt lat="48.867751" lon="2.145125">
        <ele>31.627046</ele>
        <time>2025-01-15T10:05:43.211Z</time>
      </trkpt>
      <trkpt lat="48.867768" lon="2.145231">
        <ele>31.605347</ele>
        <time>2025-01-15T10:05:48.195Z</time>
      </trkpt>
      <trkpt lat="48.867776" lon="2.145280">
        <ele>31.595307</ele>
        <time>2025-01-15T10:05:50.477Z</time>
      </trkpt>
      <trkpt lat="48.867707" lon="2.145310">
        <ele>31.573609</ele>
        <time>2025-01-15T10:05:52.444Z</time>
      </trkpt>
      <trkpt lat="48.867674" lon="2.145071">
        <ele>31.525041</ele>
        <time>2025-01-15T10:05:55.862Z</time>
      </trkpt>
      <trkpt lat="48.867596" lon="2.144462">
        <ele>31.401649</ele>
        <time>2025-01-15T10:06:07.285Z</time>
      </trkpt>
      <trkpt lat="48.867596" lon="2.144462">
        <ele>31.401649</ele>
        <time>2025-01-15T10:06:07.294Z</time>
      </trkpt>
      <trkpt lat="48.867596" lon="2.144462">
        <ele>31.401649</ele>
        <time>2025-01-15T10:06:07.301Z</time>
      </trkpt>
      <trkpt lat="48.867674" lon="2.145071">
        <ele>31.278257</ele>
        <time>2025-01-15T10:06:17.099Z</time>
      </trkpt>
      <trkpt lat="48.867707" lon="2.145310">
        <ele>31.245014</ele>
        <time>2025-01-15T10:06:20.829Z</time>
      </trkpt>
      <trkpt lat="48.867840" lon="2.146094">
        <ele>31.178266</ele>
        <time>2025-01-15T10:06:32.658Z</time>
      </trkpt>
      <trkpt lat="48.867861" lon="2.146205">
        <ele>31.168745</ele>
        <time>2025-01-15T10:06:34.420Z</time>
      </trkpt>
      <trkpt lat="48.867930" lon="2.146174">
        <ele>31.159727</ele>
        <time>2025-01-15T10:06:35.977Z</time>
      </trkpt>
      <trkpt lat="48.867969" lon="2.146156">
        <ele>31.154619</ele>
        <time>2025-01-15T10:06:36.893Z</time>
      </trkpt>
      <trkpt lat="48.867988" lon="2.146258">
        <ele>31.145880</ele>
        <time>2025-01-15T10:06:38.630Z</time>
      </trkpt>
      <trkpt lat="48.868337" lon="2.147841">
        <ele>30.747700</ele>
        <time>2025-01-15T10:07:02.260Z</time>
      </trkpt>
      <trkpt lat="48.868410" lon="2.148306">
        <ele>30.245787</ele>
        <time>2025-01-15T10:07:08.625Z</time>
      </trkpt>
      <trkpt lat="48.868411" lon="2.148492">
        <ele>30.050500</ele>
        <time>2025-01-15T10:07:10.925Z</time>
      </trkpt>
      <trkpt lat="48.868401" lon="2.148696">
        <ele>29.835728</ele>
        <time>2025-01-15T10:07:13.383Z</time>
      </trkpt>
      <trkpt lat="48.868384" lon="2.148998">
        <ele>29.517501</ele>
        <time>2025-01-15T10:07:17.075Z</time>
      </trkpt>
      <trkpt lat="48.868442" lon="2.149007">
        <ele>29.424446</ele>
        <time>2025-01-15T10:07:21.100Z</time>
      </trkpt>
      <trkpt lat="48.868471" lon="2.148458">
        <ele>28.846199</ele>
        <time>2025-01-15T10:07:27.626Z</time>
      </trkpt>
      <trkpt lat="48.868902" lon="2.148272">
        <ele>28.138813</ele>
        <time>2025-01-15T10:07:36.209Z</time>
      </trkpt>
      <trkpt lat="48.869054" lon="2.148655">
        <ele>27.796038</ele>
        <time>2025-01-15T10:07:41.444Z</time>
      </trkpt>
      <trkpt lat="48.869504" lon="2.149465">
        <ele>26.983576</ele>
        <time>2025-01-15T10:07:54.647Z</time>
      </trkpt>
      <trkpt lat="48.869839" lon="2.149955">
        <ele>26.442009</ele>
        <time>2025-01-15T10:08:04.655Z</time>
      </trkpt>
      <trkpt lat="48.870655" lon="2.150953">
        <ele>25.732577</ele>
        <time>2025-01-15T10:08:27.019Z</time>
      </trkpt>
      <trkpt lat="48.871560" lon="2.152071">
        <ele>25.201559</ele>
        <time>2025-01-15T10:08:51.373Z</time>
      </trkpt>
      <trkpt lat="48.872303" lon="2.152844">
        <ele>24.827723</ele>
        <time>2025-01-15T10:09:09.978Z</time>
      </trkpt>
      <trkpt lat="48.872583" lon="2.153084">
        <ele>24.694254</ele>
        <time>2025-01-15T10:09:16.682Z</time>
      </trkpt>
      <trkpt lat="48.872831" lon="2.153289">
        <ele>24.577041</ele>
        <time>2025-01-15T10:09:22.675Z</time>
      </trkpt>
      <trkpt lat="48.872843" lon="2.153456">
        <ele>24.531160</ele>
        <time>2025-01-15T10:09:26.736Z</time>
      </trkpt>
      <trkpt lat="48.872898" lon="2.153663">
        <ele>24.504008</ele>
        <time>2025-01-15T10:09:32.259Z</time>
      </trkpt>
      <trkpt lat="48.872893" lon="2.153856">
        <ele>24.532011</ele>
        <time>2025-01-15T10:09:37.029Z</time>
      </trkpt>
      <trkpt lat="48.873039" lon="2.154559">
        <ele>24.638895</ele>
        <time>2025-01-15T10:09:55.406Z</time>
      </trkpt>
      <trkpt lat="48.873008" lon="2.154967">
        <ele>24.698442</ele>
        <time>2025-01-15T10:10:05.895Z</time>
      </trkpt>
      <trkpt lat="48.873056" lon="2.155253">
        <ele>24.741236</ele>
        <time>2025-01-15T10:10:13.696Z</time>
      </trkpt>
      <trkpt lat="48.873083" lon="2.155256">
        <ele>24.747203</ele>
        <time>2025-01-15T10:10:14.426Z</time>
      </trkpt>
      <trkpt lat="48.873131" lon="2.155280">
        <ele>24.758341</ele>
        <time>2025-01-15T10:10:15.841Z</time>
      </trkpt>
      <trkpt lat="48.873295" lon="2.155521">
        <ele>24.808618</ele>
        <time>2025-01-15T10:10:22.316Z</time>
      </trkpt>
      <trkpt lat="48.873947" lon="2.156938">
        <ele>24.747998</ele>
        <time>2025-01-15T10:10:55.793Z</time>
      </trkpt>
      <trkpt lat="48.874037" lon="2.157098">
        <ele>24.722812</ele>
        <time>2025-01-15T10:10:58.621Z</time>
      </trkpt>
      <trkpt lat="48.874165" lon="2.157225">
        <ele>24.695011</ele>
        <time>2025-01-15T10:11:01.754Z</time>
      </trkpt>
      <trkpt lat="48.874678" lon="2.158250">
        <ele>24.638355</ele>
        <time>2025-01-15T10:11:19.403Z</time>
      </trkpt>
      <trkpt lat="48.875352" lon="2.159591">
        <ele>25.387766</ele>
        <time>2025-01-15T10:11:46.809Z</time>
      </trkpt>
      <trkpt lat="48.875535" lon="2.159856">
        <ele>25.558383</ele>
        <time>2025-01-15T10:11:54.236Z</time>
      </trkpt>
      <trkpt lat="48.876213" lon="2.160662">
        <ele>26.354604</ele>
        <time>2025-01-15T10:12:20.092Z</time>
      </trkpt>
      <trkpt lat="48.876449" lon="2.160890">
        <ele>26.655125</ele>
        <time>2025-01-15T10:12:28.364Z</time>
      </trkpt>
      <trkpt lat="48.876987" lon="2.161526">
        <ele>27.387564</ele>
        <time>2025-01-15T10:12:47.205Z</time>
      </trkpt>
      <trkpt lat="48.876993" lon="2.161646">
        <ele>27.472633</ele>
        <time>2025-01-15T10:12:49.280Z</time>
      </trkpt>
      <trkpt lat="48.876954" lon="2.161820">
        <ele>27.602573</ele>
        <time>2025-01-15T10:12:52.380Z</time>
      </trkpt>
      <trkpt lat="48.876548" lon="2.162616">
        <ele>27.723565</ele>
        <time>2025-01-15T10:13:07.204Z</time>
      </trkpt>
      <trkpt lat="48.876378" lon="2.162921">
        <ele>27.730328</ele>
        <time>2025-01-15T10:13:12.885Z</time>
      </trkpt>
      <trkpt lat="48.876276" lon="2.163191">
        <ele>27.735595</ele>
        <time>2025-01-15T10:13:17.382Z</time>
      </trkpt>
      <trkpt lat="48.876214" lon="2.163375">
        <ele>27.739093</ele>
        <time>2025-01-15T10:13:20.353Z</time>
      </trkpt>
      <trkpt lat="48.875933" lon="2.164200">
        <ele>27.754809</ele>
        <time>2025-01-15T10:13:33.806Z</time>
      </trkpt>
      <trkpt lat="48.875826" lon="2.164501">
        <ele>27.764699</ele>
        <time>2025-01-15T10:13:38.761Z</time>
      </trkpt>
      <trkpt lat="48.875798" lon="2.164575">
        <ele>27.767270</ele>
        <time>2025-01-15T10:13:39.992Z</time>
      </trkpt>
      <trkpt lat="48.875773" lon="2.164649">
        <ele>27.769775</ele>
        <time>2025-01-15T10:13:41.204Z</time>
      </trkpt>
      <trkpt lat="48.875738" lon="2.164752">
        <ele>27.773265</ele>
        <time>2025-01-15T10:13:42.904Z</time>
      </trkpt>
      <trkpt lat="48.875588" lon="2.165199">
        <ele>27.788375</ele>
        <time>2025-01-15T10:13:50.704Z</time>
      </trkpt>
      <trkpt lat="48.875567" lon="2.165262">
        <ele>27.790501</ele>
        <time>2025-01-15T10:13:51.811Z</time>
      </trkpt>
      <trkpt lat="48.875518" lon="2.165399">
        <ele>27.795197</ele>
        <time>2025-01-15T10:13:54.240Z</time>
      </trkpt>
      <trkpt lat="48.875153" lon="2.166441">
        <ele>27.830743</ele>
        <time>2025-01-15T10:14:11.493Z</time>
      </trkpt>
      <trkpt lat="48.875038" lon="2.166768">
        <ele>27.893112</ele>
        <time>2025-01-15T10:14:16.867Z</time>
      </trkpt>
      <trkpt lat="48.874809" lon="2.167403">
        <ele>28.178824</ele>
        <time>2025-01-15T10:14:27.504Z</time>
      </trkpt>
      <trkpt lat="48.874850" lon="2.167472">
        <ele>28.215511</ele>
        <time>2025-01-15T10:14:28.928Z</time>
      </trkpt>
      <trkpt lat="48.874848" lon="2.167547">
        <ele>28.245125</ele>
        <time>2025-01-15T10:14:30.065Z</time>
      </trkpt>
      <trkpt lat="48.874879" lon="2.167640">
        <ele>28.286259</ele>
        <time>2025-01-15T10:14:31.650Z</time>
      </trkpt>
      <trkpt lat="48.875253" lon="2.168412">
        <ele>28.664538</ele>
        <time>2025-01-15T10:14:47.591Z</time>
      </trkpt>
      <trkpt lat="48.875241" lon="2.168424">
        <ele>28.673154</ele>
        <time>2025-01-15T10:14:47.994Z</time>
      </trkpt>
      <trkpt lat="48.875216" lon="2.168452">
        <ele>28.691779</ele>
        <time>2025-01-15T10:14:48.867Z</time>
      </trkpt>
      <trkpt lat="48.875172" lon="2.168500">
        <ele>28.724264</ele>
        <time>2025-01-15T10:14:50.381Z</time>
      </trkpt>
      <trkpt lat="48.875128" lon="2.168549">
        <ele>28.756980</ele>
        <time>2025-01-15T10:14:51.965Z</time>
      </trkpt>
      <trkpt lat="48.875102" lon="2.168578">
        <ele>28.776322</ele>
        <time>2025-01-15T10:14:52.913Z</time>
      </trkpt>
      <trkpt lat="48.875088" lon="2.168594">
        <ele>28.786828</ele>
        <time>2025-01-15T10:14:53.452Z</time>
      </trkpt>
      <trkpt lat="48.875046" lon="2.168581">
        <ele>28.812539</ele>
        <time>2025-01-15T10:14:54.738Z</time>
      </trkpt>
      <trkpt lat="48.874951" lon="2.168676">
        <ele>28.880745</ele>
        <time>2025-01-15T10:14:58.319Z</time>
      </trkpt>
      <trkpt lat="48.874866" lon="2.168696">
        <ele>28.943993</ele>
        <time>2025-01-15T10:15:01.064Z</time>
      </trkpt>
      <trkpt lat="48.874339" lon="2.170099">
        <ele>30.053266</ele>
        <time>2025-01-15T10:15:31.925Z</time>
      </trkpt>
      <trkpt lat="48.874483" lon="2.171474">
        <ele>30.974139</ele>
        <time>2025-01-15T10:15:54.822Z</time>
      </trkpt>
      <trkpt lat="48.874577" lon="2.172389">
        <ele>31.506324</ele>
        <time>2025-01-15T10:16:10.436Z</time>
      </trkpt>
      <trkpt lat="48.874666" lon="2.173220">
        <ele>31.990151</ele>
        <time>2025-01-15T10:16:25.526Z</time>
      </trkpt>
      <trkpt lat="48.874741" lon="2.173959">
        <ele>32.424605</ele>
        <time>2025-01-15T10:16:39.380Z</time>
      </trkpt>
      <trkpt lat="48.874764" lon="2.174184">
        <ele>32.566948</ele>
        <time>2025-01-15T10:16:43.855Z</time>
      </trkpt>
      <trkpt lat="48.874781" lon="2.174350">
        <ele>32.671969</ele>
        <time>2025-01-15T10:16:47.163Z</time>
      </trkpt>
      <trkpt lat="48.874903" lon="2.175547">
        <ele>33.429179</ele>
        <time>2025-01-15T10:17:09.243Z</time>
      </trkpt>
      <trkpt lat="48.874902" lon="2.175859">
        <ele>33.624221</ele>
        <time>2025-01-15T10:17:14.476Z</time>
      </trkpt>
      <trkpt lat="48.874961" lon="2.176337">
        <ele>33.928248</ele>
        <time>2025-01-15T10:17:23.158Z</time>
      </trkpt>
      <trkpt lat="48.875164" lon="2.177423">
        <ele>34.050822</ele>
        <time>2025-01-15T10:17:40.901Z</time>
      </trkpt>
      <trkpt lat="48.875198" lon="2.177541">
        <ele>34.047307</ele>
        <time>2025-01-15T10:17:42.766Z</time>
      </trkpt>
      <trkpt lat="48.875250" lon="2.177777">
        <ele>34.040514</ele>
        <time>2025-01-15T10:17:46.315Z</time>
      </trkpt>
      <trkpt lat="48.875328" lon="2.177803">
        <ele>34.037201</ele>
        <time>2025-01-15T10:17:48.071Z</time>
      </trkpt>
      <trkpt lat="48.875407" lon="2.177782">
        <ele>34.033873</ele>
        <time>2025-01-15T10:17:49.815Z</time>
      </trkpt>
      <trkpt lat="48.875772" lon="2.177460">
        <ele>34.016363</ele>
        <time>2025-01-15T10:17:59.055Z</time>
      </trkpt>
      <trkpt lat="48.875973" lon="2.177375">
        <ele>34.007707</ele>
        <time>2025-01-15T10:18:03.530Z</time>
      </trkpt>
      <trkpt lat="48.876110" lon="2.177198">
        <ele>34.000181</ele>
        <time>2025-01-15T10:18:07.386Z</time>
      </trkpt>
      <trkpt lat="48.876355" lon="2.177557">
        <ele>33.983330</ele>
        <time>2025-01-15T10:18:14.459Z</time>
      </trkpt>
      <trkpt lat="48.877386" lon="2.179051">
        <ele>33.912793</ele>
        <time>2025-01-15T10:18:47.390Z</time>
      </trkpt>
      <trkpt lat="48.877472" lon="2.179157">
        <ele>33.902362</ele>
        <time>2025-01-15T10:18:50.617Z</time>
      </trkpt>
      <trkpt lat="48.877548" lon="2.179264">
        <ele>33.891181</ele>
        <time>2025-01-15T10:18:53.610Z</time>
      </trkpt>
      <trkpt lat="48.877773" lon="2.179630">
        <ele>33.855613</ele>
        <time>2025-01-15T10:19:00.574Z</time>
      </trkpt>
      <trkpt lat="48.878066" lon="2.180105">
        <ele>33.809379</ele>
        <time>2025-01-15T10:19:09.445Z</time>
      </trkpt>
      <trkpt lat="48.878292" lon="2.180482">
        <ele>33.773164</ele>
        <time>2025-01-15T10:19:16.460Z</time>
      </trkpt>
      <trkpt lat="48.878332" lon="2.180551">
        <ele>33.766634</ele>
        <time>2025-01-15T10:19:17.816Z</time>
      </trkpt>
      <trkpt lat="48.878406" lon="2.180678">
        <ele>33.754588</ele>
        <time>2025-01-15T10:19:20.269Z</time>
      </trkpt>
      <trkpt lat="48.878494" lon="2.180822">
        <ele>33.740632</ele>
        <time>2025-01-15T10:19:23.188Z</time>
      </trkpt>
      <trkpt lat="48.878630" lon="2.181032">
        <ele>33.719709</ele>
        <time>2025-01-15T10:19:27.720Z</time>
      </trkpt>
      <trkpt lat="48.878743" lon="2.181227">
        <ele>33.987932</ele>
        <time>2025-01-15T10:19:31.936Z</time>
      </trkpt>
      <trkpt lat="48.878867" lon="2.181404">
        <ele>34.296772</ele>
        <time>2025-01-15T10:19:36.284Z</time>
      </trkpt>
      <trkpt lat="48.878952" lon="2.181547">
        <ele>34.526962</ele>
        <time>2025-01-15T10:19:39.649Z</time>
      </trkpt>
      <trkpt lat="48.879215" lon="2.182516">
        <ele>35.778833</ele>
        <time>2025-01-15T10:20:00.882Z</time>
      </trkpt>
      <trkpt lat="48.879573" lon="2.183812">
        <ele>37.697068</ele>
        <time>2025-01-15T10:20:35.153Z</time>
      </trkpt>
      <trkpt lat="48.879615" lon="2.183915">
        <ele>37.914934</ele>
        <time>2025-01-15T10:20:38.219Z</time>
      </trkpt>
      <trkpt lat="48.879635" lon="2.183963">
        <ele>38.017084</ele>
        <time>2025-01-15T10:20:39.622Z</time>
      </trkpt>
      <trkpt lat="48.879364" lon="2.184934">
        <ele>39.913323</ele>
        <time>2025-01-15T10:21:05.782Z</time>
      </trkpt>
      <trkpt lat="48.879036" lon="2.185929">
        <ele>41.908724</ele>
        <time>2025-01-15T10:21:31.826Z</time>
      </trkpt>
      <trkpt lat="48.879069" lon="2.186042">
        <ele>42.045022</ele>
        <time>2025-01-15T10:21:34.415Z</time>
      </trkpt>
      <trkpt lat="48.878878" lon="2.186192">
        <ele>42.405361</ele>
        <time>2025-01-15T10:21:40.900Z</time>
      </trkpt>
      <trkpt lat="48.878746" lon="2.186307">
        <ele>42.660367</ele>
        <time>2025-01-15T10:21:45.303Z</time>
      </trkpt>
      <trkpt lat="48.878641" lon="2.186396">
        <ele>42.861869</ele>
        <time>2025-01-15T10:21:48.730Z</time>
      </trkpt>
      <trkpt lat="48.878670" lon="2.186511">
        <ele>42.997643</ele>
        <time>2025-01-15T10:21:51.039Z</time>
      </trkpt>
      <trkpt lat="48.878928" lon="2.187246">
        <ele>43.916079</ele>
        <time>2025-01-15T10:22:06.908Z</time>
      </trkpt>
      <trkpt lat="48.878958" lon="2.187510">
        <ele>44.211418</ele>
        <time>2025-01-15T10:22:11.986Z</time>
      </trkpt>
      <trkpt lat="48.878891" lon="2.187939">
        <ele>44.697488</ele>
        <time>2025-01-15T10:22:20.244Z</time>
      </trkpt>
      <trkpt lat="48.878815" lon="2.188555">
        <ele>46.079963</ele>
        <time>2025-01-15T10:22:32.764Z</time>
      </trkpt>
      <trkpt lat="48.879013" lon="2.189630">
        <ele>49.108532</ele>
        <time>2025-01-15T10:23:01.421Z</time>
      </trkpt>
      <trkpt lat="48.878988" lon="2.189811">
        <ele>49.610276</ele>
        <time>2025-01-15T10:23:06.999Z</time>
      </trkpt>
      <trkpt lat="48.878752" lon="2.190510">
        <ele>51.741881</ele>
        <time>2025-01-15T10:23:32.519Z</time>
      </trkpt>
      <trkpt lat="48.878666" lon="2.190853">
        <ele>53.125369</ele>
        <time>2025-01-15T10:23:45.825Z</time>
      </trkpt>
      <trkpt lat="48.878626" lon="2.191096">
        <ele>54.458416</ele>
        <time>2025-01-15T10:23:55.384Z</time>
      </trkpt>
      <trkpt lat="48.878553" lon="2.191594">
        <ele>57.173621</ele>
        <time>2025-01-15T10:24:15.948Z</time>
      </trkpt>
      <trkpt lat="48.878531" lon="2.191809">
        <ele>58.331539</ele>
        <time>2025-01-15T10:24:25.027Z</time>
      </trkpt>
      <trkpt lat="48.878389" lon="2.193529">
        <ele>67.586013</ele>
        <time>2025-01-15T10:25:41.383Z</time>
      </trkpt>
      <trkpt lat="48.878115" lon="2.194607">
        <ele>74.007177</ele>
        <time>2025-01-15T10:26:30.440Z</time>
      </trkpt>
      <trkpt lat="48.877959" lon="2.195413">
        <ele>78.675267</ele>
        <time>2025-01-15T10:27:08.021Z</time>
      </trkpt>
      <trkpt lat="48.877906" lon="2.195876">
        <ele>81.286406</ele>
        <time>2025-01-15T10:27:27.641Z</time>
      </trkpt>
      <trkpt lat="48.877828" lon="2.196702">
        <ele>84.522941</ele>
        <time>2025-01-15T10:27:59.317Z</time>
      </trkpt>
      <trkpt lat="48.877805" lon="2.196806">
        <ele>84.910254</ele>
        <time>2025-01-15T10:28:03.281Z</time>
      </trkpt>
      <trkpt lat="48.877664" lon="2.197894">
        <ele>88.824672</ele>
        <time>2025-01-15T10:28:41.386Z</time>
      </trkpt>
      <trkpt lat="48.877581" lon="2.198163">
        <ele>89.873535</ele>
        <time>2025-01-15T10:28:49.635Z</time>
      </trkpt>
      <trkpt lat="48.877304" lon="2.198846">
        <ele>92.043537</ele>
        <time>2025-01-15T10:29:07.536Z</time>
      </trkpt>
      <trkpt lat="48.877234" lon="2.198977">
        <ele>92.231553</ele>
        <time>2025-01-15T10:29:10.973Z</time>
      </trkpt>
      <trkpt lat="48.876899" lon="2.199699">
        <ele>93.215803</ele>
        <time>2025-01-15T10:29:27.621Z</time>
      </trkpt>
      <trkpt lat="48.876811" lon="2.199888">
        <ele>93.473752</ele>
        <time>2025-01-15T10:29:31.760Z</time>
      </trkpt>
      <trkpt lat="48.876402" lon="2.200764">
        <ele>94.670437</ele>
        <time>2025-01-15T10:29:51.567Z</time>
      </trkpt>
      <trkpt lat="48.876304" lon="2.200764">
        <ele>94.892143</ele>
        <time>2025-01-15T10:29:54.592Z</time>
      </trkpt>
      <trkpt lat="48.876230" lon="2.200842">
        <ele>95.208228</ele>
        <time>2025-01-15T10:29:57.474Z</time>
      </trkpt>
      <trkpt lat="48.876193" lon="2.200906">
        <ele>95.404958</ele>
        <time>2025-01-15T10:29:59.294Z</time>
      </trkpt>
      <trkpt lat="48.876207" lon="2.201044">
        <ele>95.727334</ele>
        <time>2025-01-15T10:30:02.340Z</time>
      </trkpt>
      <trkpt lat="48.876247" lon="2.201136">
        <ele>95.981956</ele>
        <time>2025-01-15T10:30:04.806Z</time>
      </trkpt>
      <trkpt lat="48.876009" lon="2.201690">
        <ele>97.509693</ele>
        <time>2025-01-15T10:30:20.835Z</time>
      </trkpt>
      <trkpt lat="48.875580" lon="2.202713">
        <ele>100.310825</ele>
        <time>2025-01-15T10:30:54.990Z</time>
      </trkpt>
      <trkpt lat="48.875416" lon="2.203396">
        <ele>102.374444</ele>
        <time>2025-01-15T10:31:17.469Z</time>
      </trkpt>
      <trkpt lat="48.875220" lon="2.204182">
        <ele>105.153532</ele>
        <time>2025-01-15T10:31:45.999Z</time>
      </trkpt>
      <trkpt lat="48.875170" lon="2.204565">
        <ele>106.444469</ele>
        <time>2025-01-15T10:31:59.217Z</time>
      </trkpt>
      <trkpt lat="48.875144" lon="2.204900">
        <ele>107.559696</ele>
        <time>2025-01-15T10:32:09.951Z</time>
      </trkpt>
      <trkpt lat="48.875143" lon="2.204976">
        <ele>107.811010</ele>
        <time>2025-01-15T10:32:12.374Z</time>
      </trkpt>
      <trkpt lat="48.875139" lon="2.205750">
        <ele>110.221233</ele>
        <time>2025-01-15T10:32:35.381Z</time>
      </trkpt>
      <trkpt lat="48.874536" lon="2.205853">
        <ele>111.300759</ele>
        <time>2025-01-15T10:32:59.766Z</time>
      </trkpt>
      <trkpt lat="48.874272" lon="2.205980">
        <ele>111.793381</ele>
        <time>2025-01-15T10:33:08.434Z</time>
      </trkpt>
      <trkpt lat="48.873621" lon="2.206442">
        <ele>113.071508</ele>
        <time>2025-01-15T10:33:24.847Z</time>
      </trkpt>
      <trkpt lat="48.873603" lon="2.206457">
        <ele>113.108026</ele>
        <time>2025-01-15T10:33:25.257Z</time>
      </trkpt>
      <trkpt lat="48.873574" lon="2.206481">
        <ele>113.166767</ele>
        <time>2025-01-15T10:33:25.943Z</time>
      </trkpt>
      <trkpt lat="48.873033" lon="2.206932">
        <ele>113.326529</ele>
        <time>2025-01-15T10:33:39.476Z</time>
      </trkpt>
      <trkpt lat="48.872721" lon="2.207278">
        <ele>113.316788</ele>
        <time>2025-01-15T10:33:47.991Z</time>
      </trkpt>
      <trkpt lat="48.871846" lon="2.208672">
        <ele>113.302914</ele>
        <time>2025-01-15T10:34:16.196Z</time>
      </trkpt>
      <trkpt lat="48.871705" lon="2.208896">
        <ele>113.307617</ele>
        <time>2025-01-15T10:34:20.910Z</time>
      </trkpt>
      <trkpt lat="48.870845" lon="2.209666">
        <ele>113.330634</ele>
        <time>2025-01-15T10:34:42.420Z</time>
      </trkpt>
      <trkpt lat="48.870841" lon="2.210012">
        <ele>113.348486</ele>
        <time>2025-01-15T10:34:47.291Z</time>
      </trkpt>
      <trkpt lat="48.870732" lon="2.210141">
        <ele>113.656103</ele>
        <time>2025-01-15T10:34:50.656Z</time>
      </trkpt>
      <trkpt lat="48.870048" lon="2.210748">
        <ele>115.419867</ele>
        <time>2025-01-15T10:35:13.806Z</time>
      </trkpt>
      <trkpt lat="48.869994" lon="2.210791">
        <ele>115.555620</ele>
        <time>2025-01-15T10:35:15.784Z</time>
      </trkpt>
      <trkpt lat="48.870049" lon="2.211033">
        <ele>115.930673</ele>
        <time>2025-01-15T10:35:21.654Z</time>
      </trkpt>
      <trkpt lat="48.870106" lon="2.211156">
        <ele>116.151073</ele>
        <time>2025-01-15T10:35:25.211Z</time>
      </trkpt>
      <trkpt lat="48.870634" lon="2.213021">
        <ele>118.797131</ele>
        <time>2025-01-15T10:36:23.673Z</time>
      </trkpt>
      <trkpt lat="48.870649" lon="2.213279">
        <ele>119.106743</ele>
        <time>2025-01-15T10:36:30.663Z</time>
      </trkpt>
      <trkpt lat="48.870840" lon="2.213508">
        <ele>119.548811</ele>
        <time>2025-01-15T10:36:39.640Z</time>
      </trkpt>
      <trkpt lat="48.870913" lon="2.213595">
        <ele>119.717382</ele>
        <time>2025-01-15T10:36:42.456Z</time>
      </trkpt>
      <trkpt lat="48.870950" lon="2.214012">
        <ele>120.220370</ele>
        <time>2025-01-15T10:36:49.036Z</time>
      </trkpt>
      <trkpt lat="48.870992" lon="2.214482">
        <ele>119.825371</ele>
        <time>2025-01-15T10:36:54.890Z</time>
      </trkpt>
      <trkpt lat="48.870977" lon="2.214584">
        <ele>119.272468</ele>
        <time>2025-01-15T10:36:56.036Z</time>
      </trkpt>
      <trkpt lat="48.870934" lon="2.215012">
        <ele>116.982083</ele>
        <time>2025-01-15T10:37:00.495Z</time>
      </trkpt>
      <trkpt lat="48.870769" lon="2.216411">
        <ele>109.463308</ele>
        <time>2025-01-15T10:37:13.851Z</time>
      </trkpt>
      <trkpt lat="48.870496" lon="2.218017">
        <ele>99.535019</ele>
        <time>2025-01-15T10:37:29.112Z</time>
      </trkpt>
      <trkpt lat="48.870470" lon="2.218144">
        <ele>98.682654</ele>
        <time>2025-01-15T10:37:30.365Z</time>
      </trkpt>
      <trkpt lat="48.870022" lon="2.217597">
        <ele>93.084616</ele>
        <time>2025-01-15T10:37:38.575Z</time>
      </trkpt>
      <trkpt lat="48.869905" lon="2.217518">
        <ele>91.837365</ele>
        <time>2025-01-15T10:37:40.401Z</time>
      </trkpt>
      <trkpt lat="48.869791" lon="2.217472">
        <ele>90.688256</ele>
        <time>2025-01-15T10:37:42.110Z</time>
      </trkpt>
      <trkpt lat="48.869758" lon="2.217552">
        <ele>90.083112</ele>
        <time>2025-01-15T10:37:43.015Z</time>
      </trkpt>
      <trkpt lat="48.869357" lon="2.218354">
        <ele>83.355438</ele>
        <time>2025-01-15T10:37:52.829Z</time>
      </trkpt>
      <trkpt lat="48.869212" lon="2.218623">
        <ele>81.005353</ele>
        <time>2025-01-15T10:37:56.090Z</time>
      </trkpt>
      <trkpt lat="48.868933" lon="2.218542">
        <ele>78.087420</ele>
        <time>2025-01-15T10:38:00.072Z</time>
      </trkpt>
      <trkpt lat="48.868878" lon="2.218553">
        <ele>77.517543</ele>
        <time>2025-01-15T10:38:00.860Z</time>
      </trkpt>
      <trkpt lat="48.868820" lon="2.218629">
        <ele>76.730934</ele>
        <time>2025-01-15T10:38:01.934Z</time>
      </trkpt>
      <trkpt lat="48.868359" lon="2.219471">
        <ele>69.396157</ele>
        <time>2025-01-15T10:38:11.938Z</time>
      </trkpt>
      <trkpt lat="48.868202" lon="2.219984">
        <ele>65.891456</ele>
        <time>2025-01-15T10:38:17.031Z</time>
      </trkpt>
      <trkpt lat="48.868054" lon="2.220447">
        <ele>62.702848</ele>
        <time>2025-01-15T10:38:21.699Z</time>
      </trkpt>
      <trkpt lat="48.868001" lon="2.220613">
        <ele>61.559888</ele>
        <time>2025-01-15T10:38:23.428Z</time>
      </trkpt>
      <trkpt lat="48.867799" lon="2.221302">
        <ele>56.887360</ele>
        <time>2025-01-15T10:38:30.681Z</time>
      </trkpt>
      <trkpt lat="48.867673" lon="2.221305">
        <ele>55.700720</ele>
        <time>2025-01-15T10:38:32.554Z</time>
      </trkpt>
      <trkpt lat="48.867486" lon="2.221067">
        <ele>53.404164</ele>
        <time>2025-01-15T10:38:36.240Z</time>
      </trkpt>
      <trkpt lat="48.867090" lon="2.220739">
        <ele>51.535612</ele>
        <time>2025-01-15T10:38:43.500Z</time>
      </trkpt>
      <trkpt lat="48.867104" lon="2.220832">
        <ele>51.291726</ele>
        <time>2025-01-15T10:38:44.536Z</time>
      </trkpt>
      <trkpt lat="48.867164" lon="2.220932">
        <ele>50.945724</ele>
        <time>2025-01-15T10:38:46.147Z</time>
      </trkpt>
      <trkpt lat="48.867410" lon="2.221150">
        <ele>49.839156</ele>
        <time>2025-01-15T10:38:51.403Z</time>
      </trkpt>
      <trkpt lat="48.867593" lon="2.221370">
        <ele>48.932489</ele>
        <time>2025-01-15T10:38:55.765Z</time>
      </trkpt>
      <trkpt lat="48.867597" lon="2.221505">
        <ele>48.587036</ele>
        <time>2025-01-15T10:38:57.353Z</time>
      </trkpt>
      <trkpt lat="48.867596" lon="2.221530">
        <ele>48.523009</ele>
        <time>2025-01-15T10:38:57.649Z</time>
      </trkpt>
      <trkpt lat="48.867588" lon="2.221615">
        <ele>48.303509</ele>
        <time>2025-01-15T10:38:58.592Z</time>
      </trkpt>
      <trkpt lat="48.867574" lon="2.221655">
        <ele>48.187683</ele>
        <time>2025-01-15T10:38:59.098Z</time>
      </trkpt>
      <trkpt lat="48.867555" lon="2.221703">
        <ele>48.044476</ele>
        <time>2025-01-15T10:38:59.727Z</time>
      </trkpt>
      <trkpt lat="48.867521" lon="2.221761">
        <ele>47.845878</ele>
        <time>2025-01-15T10:39:00.588Z</time>
      </trkpt>
      <trkpt lat="48.867309" lon="2.221960">
        <ele>46.877610</ele>
        <time>2025-01-15T10:39:04.576Z</time>
      </trkpt>
      <trkpt lat="48.867272" lon="2.222036">
        <ele>46.635907</ele>
        <time>2025-01-15T10:39:05.582Z</time>
      </trkpt>
      <trkpt lat="48.867035" lon="2.222711">
        <ele>44.727356</ele>
        <time>2025-01-15T10:39:13.665Z</time>
      </trkpt>
      <trkpt lat="48.866805" lon="2.223346">
        <ele>42.931414</ele>
        <time>2025-01-15T10:39:21.601Z</time>
      </trkpt>
      <trkpt lat="48.866733" lon="2.223542">
        <ele>42.375234</ele>
        <time>2025-01-15T10:39:24.141Z</time>
      </trkpt>
      <trkpt lat="48.866721" lon="2.223576">
        <ele>42.279639</ele>
        <time>2025-01-15T10:39:24.578Z</time>
      </trkpt>
      <trkpt lat="48.866706" lon="2.223617">
        <ele>42.163408</ele>
        <time>2025-01-15T10:39:25.105Z</time>
      </trkpt>
      <trkpt lat="48.866659" lon="2.223742">
        <ele>41.806696</ele>
        <time>2025-01-15T10:39:26.753Z</time>
      </trkpt>
      <trkpt lat="48.866437" lon="2.224339">
        <ele>40.107641</ele>
        <time>2025-01-15T10:39:34.167Z</time>
      </trkpt>
      <trkpt lat="48.866409" lon="2.224436">
        <ele>39.845200</ele>
        <time>2025-01-15T10:39:35.315Z</time>
      </trkpt>
      <trkpt lat="48.866436" lon="2.224599">
        <ele>39.433083</ele>
        <time>2025-01-15T10:39:37.174Z</time>
      </trkpt>
      <trkpt lat="48.866567" lon="2.224714">
        <ele>39.042183</ele>
        <time>2025-01-15T10:39:39.875Z</time>
      </trkpt>
      <trkpt lat="48.866796" lon="2.224975">
        <ele>38.302590</ele>
        <time>2025-01-15T10:39:44.840Z</time>
      </trkpt>
      <trkpt lat="48.866880" lon="2.225078">
        <ele>38.023718</ele>
        <time>2025-01-15T10:39:46.768Z</time>
      </trkpt>
      <trkpt lat="48.867002" lon="2.225236">
        <ele>37.609573</ele>
        <time>2025-01-15T10:39:49.676Z</time>
      </trkpt>
      <trkpt lat="48.867019" lon="2.225259">
        <ele>37.550766</ele>
        <time>2025-01-15T10:39:50.077Z</time>
      </trkpt>
      <trkpt lat="48.867092" lon="2.225357">
        <ele>37.299105</ele>
        <time>2025-01-15T10:39:51.787Z</time>
      </trkpt>
      <trkpt lat="48.867303" lon="2.225587">
        <ele>36.628187</ele>
        <time>2025-01-15T10:39:56.410Z</time>
      </trkpt>
      <trkpt lat="48.867387" lon="2.225661">
        <ele>36.377314</ele>
        <time>2025-01-15T10:39:58.196Z</time>
      </trkpt>
      <trkpt lat="48.867504" lon="2.225758">
        <ele>36.032941</ele>
        <time>2025-01-15T10:40:00.562Z</time>
      </trkpt>
      <trkpt lat="48.867575" lon="2.225950">
        <ele>35.658545</ele>
        <time>2025-01-15T10:40:03.142Z</time>
      </trkpt>
      <trkpt lat="48.867597" lon="2.225990">
        <ele>35.569918</ele>
        <time>2025-01-15T10:40:03.765Z</time>
      </trkpt>
      <trkpt lat="48.867632" lon="2.226124">
        <ele>35.324846</ele>
        <time>2025-01-15T10:40:05.417Z</time>
      </trkpt>
      <trkpt lat="48.867695" lon="2.226194">
        <ele>35.123203</ele>
        <time>2025-01-15T10:40:06.825Z</time>
      </trkpt>
      <trkpt lat="48.867701" lon="2.226314">
        <ele>34.918639</ele>
        <time>2025-01-15T10:40:08.287Z</time>
      </trkpt>
      <trkpt lat="48.867756" lon="2.226383">
        <ele>34.762553</ele>
        <time>2025-01-15T10:40:09.635Z</time>
      </trkpt>
      <trkpt lat="48.867820" lon="2.226425">
        <ele>34.666516</ele>
        <time>2025-01-15T10:40:10.942Z</time>
      </trkpt>
      <trkpt lat="48.867805" lon="2.226459">
        <ele>34.629415</ele>
        <time>2025-01-15T10:40:11.523Z</time>
      </trkpt>
      <trkpt lat="48.867791" lon="2.226493">
        <ele>34.593063</ele>
        <time>2025-01-15T10:40:12.061Z</time>
      </trkpt>
      <trkpt lat="48.867790" lon="2.226526">
        <ele>34.563125</ele>
        <time>2025-01-15T10:40:12.461Z</time>
      </trkpt>
      <trkpt lat="48.867829" lon="2.226559">
        <ele>34.501632</ele>
        <time>2025-01-15T10:40:13.249Z</time>
      </trkpt>
      <trkpt lat="48.867823" lon="2.226571">
        <ele>34.487972</ele>
        <time>2025-01-15T10:40:13.442Z</time>
      </trkpt>
      <trkpt lat="48.867606" lon="2.227306">
        <ele>33.757861</ele>
        <time>2025-01-15T10:40:23.189Z</time>
      </trkpt>
      <trkpt lat="48.867584" lon="2.227381">
        <ele>33.683440</ele>
        <time>2025-01-15T10:40:24.162Z</time>
      </trkpt>
      <trkpt lat="48.867580" lon="2.227496">
        <ele>33.579075</ele>
        <time>2025-01-15T10:40:25.597Z</time>
      </trkpt>
      <trkpt lat="48.867543" lon="2.227529">
        <ele>33.519974</ele>
        <time>2025-01-15T10:40:26.443Z</time>
      </trkpt>
      <trkpt lat="48.867467" lon="2.227721">
        <ele>33.316899</ele>
        <time>2025-01-15T10:40:29.234Z</time>
      </trkpt>
      <trkpt lat="48.867433" lon="2.227842">
        <ele>33.197656</ele>
        <time>2025-01-15T10:40:30.778Z</time>
      </trkpt>
      <trkpt lat="48.867418" lon="2.227900">
        <ele>33.141176</ele>
        <time>2025-01-15T10:40:31.641Z</time>
      </trkpt>
      <trkpt lat="48.867306" lon="2.228323">
        <ele>32.727939</ele>
        <time>2025-01-15T10:40:37.660Z</time>
      </trkpt>
      <trkpt lat="48.866596" lon="2.230979">
        <ele>31.917536</ele>
        <time>2025-01-15T10:41:18.637Z</time>
      </trkpt>
      <trkpt lat="48.866558" lon="2.231121">
        <ele>31.892176</ele>
        <time>2025-01-15T10:41:20.963Z</time>
      </trkpt>
      <trkpt lat="48.866598" lon="2.231198">
        <ele>31.875945</ele>
        <time>2025-01-15T10:41:22.566Z</time>
      </trkpt>
      <trkpt lat="48.866598" lon="2.231276">
        <ele>31.858282</ele>
        <time>2025-01-15T10:41:23.883Z</time>
      </trkpt>
      <trkpt lat="48.866624" lon="2.231335">
        <ele>31.805969</ele>
        <time>2025-01-15T10:41:25.038Z</time>
      </trkpt>
      <trkpt lat="48.866673" lon="2.231449">
        <ele>31.705654</ele>
        <time>2025-01-15T10:41:27.225Z</time>
      </trkpt>
      <trkpt lat="48.866888" lon="2.231755">
        <ele>31.375840</ele>
        <time>2025-01-15T10:41:34.097Z</time>
      </trkpt>
      <trkpt lat="48.866933" lon="2.231822">
        <ele>31.305304</ele>
        <time>2025-01-15T10:41:35.544Z</time>
      </trkpt>
      <trkpt lat="48.867052" lon="2.232019">
        <ele>31.108284</ele>
        <time>2025-01-15T10:41:57.273Z</time>
      </trkpt>
      <trkpt lat="48.867088" lon="2.232095">
        <ele>31.039295</ele>
        <time>2025-01-15T10:41:59.377Z</time>
      </trkpt>
      <trkpt lat="48.867282" lon="2.231705">
        <ele>30.679115</ele>
        <time>2025-01-15T10:42:05.667Z</time>
      </trkpt>
      <trkpt lat="48.867316" lon="2.231641">
        <ele>30.618516</ele>
        <time>2025-01-15T10:42:06.699Z</time>
      </trkpt>
      <trkpt lat="48.867388" lon="2.231613">
        <ele>30.535291</ele>
        <time>2025-01-15T10:42:08.067Z</time>
      </trkpt>
      <trkpt lat="48.867510" lon="2.231669">
        <ele>30.392580</ele>
        <time>2025-01-15T10:42:10.425Z</time>
      </trkpt>
      <trkpt lat="48.867624" lon="2.231656">
        <ele>30.264561</ele>
        <time>2025-01-15T10:42:12.517Z</time>
      </trkpt>
      <trkpt lat="48.867678" lon="2.231680">
        <ele>30.201559</ele>
        <time>2025-01-15T10:42:13.552Z</time>
      </trkpt>
      <trkpt lat="48.867838" lon="2.231795">
        <ele>30.003369</ele>
        <time>2025-01-15T10:42:16.810Z</time>
      </trkpt>
      <trkpt lat="48.868710" lon="2.232867">
        <ele>28.717166</ele>
        <time>2025-01-15T10:42:38.084Z</time>
      </trkpt>
      <trkpt lat="48.869103" lon="2.233466">
        <ele>28.076807</ele>
        <time>2025-01-15T10:42:49.295Z</time>
      </trkpt>
      <trkpt lat="48.869425" lon="2.234020">
        <ele>27.821269</ele>
        <time>2025-01-15T10:42:59.399Z</time>
      </trkpt>
      <trkpt lat="48.869937" lon="2.235085">
        <ele>27.975563</ele>
        <time>2025-01-15T10:43:19.495Z</time>
      </trkpt>
      <trkpt lat="48.869920" lon="2.235152">
        <ele>27.983963</ele>
        <time>2025-01-15T10:43:25.322Z</time>
      </trkpt>
      <trkpt lat="48.869729" lon="2.235297">
        <ele>28.021926</ele>
        <time>2025-01-15T10:43:31.266Z</time>
      </trkpt>
      <trkpt lat="48.869951" lon="2.236347">
        <ele>28.193997</ele>
        <time>2025-01-15T10:43:51.451Z</time>
      </trkpt>
      <trkpt lat="48.870270" lon="2.236177">
        <ele>28.305352</ele>
        <time>2025-01-15T10:44:00.670Z</time>
      </trkpt>
      <trkpt lat="48.870327" lon="2.236180">
        <ele>28.324140</ele>
        <time>2025-01-15T10:44:02.163Z</time>
      </trkpt>
      <trkpt lat="48.870373" lon="2.236231">
        <ele>28.342895</ele>
        <time>2025-01-15T10:44:03.628Z</time>
      </trkpt>
      <trkpt lat="48.870626" lon="2.237350">
        <ele>28.599287</ele>
        <time>2025-01-15T10:44:23.308Z</time>
      </trkpt>
      <trkpt lat="48.870817" lon="2.238063">
        <ele>28.750110</ele>
        <time>2025-01-15T10:44:36.650Z</time>
      </trkpt>
      <trkpt lat="48.871204" lon="2.239352">
        <ele>28.990032</ele>
        <time>2025-01-15T10:45:01.480Z</time>
      </trkpt>
      <trkpt lat="48.871470" lon="2.240093">
        <ele>29.132971</ele>
        <time>2025-01-15T10:45:15.936Z</time>
      </trkpt>
      <trkpt lat="48.871683" lon="2.240576">
        <ele>29.132374</ele>
        <time>2025-01-15T10:45:25.292Z</time>
      </trkpt>
      <trkpt lat="48.872069" lon="2.241320">
        <ele>29.082261</ele>
        <time>2025-01-15T10:45:40.155Z</time>
      </trkpt>
      <trkpt lat="48.872437" lon="2.241949">
        <ele>29.037741</ele>
        <time>2025-01-15T10:45:53.609Z</time>
      </trkpt>
      <trkpt lat="48.872473" lon="2.242118">
        <ele>29.028347</ele>
        <time>2025-01-15T10:45:56.525Z</time>
      </trkpt>
      <trkpt lat="48.872499" lon="2.242619">
        <ele>29.014339</ele>
        <time>2025-01-15T10:46:04.894Z</time>
      </trkpt>
      <trkpt lat="48.872499" lon="2.242619">
        <ele>29.014339</ele>
        <time>2025-01-15T10:46:04.896Z</time>
      </trkpt>
      <trkpt lat="48.872533" lon="2.242725">
        <ele>29.016298</ele>
        <time>2025-01-15T10:46:06.883Z</time>
      </trkpt>
      <trkpt lat="48.872641" lon="2.242890">
        <ele>29.020165</ele>
        <time>2025-01-15T10:46:10.785Z</time>
      </trkpt>
      <trkpt lat="48.872602" lon="2.242962">
        <ele>29.021715</ele>
        <time>2025-01-15T10:46:15.033Z</time>
      </trkpt>
      <trkpt lat="48.872174" lon="2.242353">
        <ele>29.036523</ele>
        <time>2025-01-15T10:46:28.474Z</time>
      </trkpt>
      <trkpt lat="48.872602" lon="2.242962">
        <ele>29.051330</ele>
        <time>2025-01-15T10:46:41.469Z</time>
      </trkpt>
      <trkpt lat="48.872653" lon="2.243025">
        <ele>29.052990</ele>
        <time>2025-01-15T10:46:42.929Z</time>
      </trkpt>
      <trkpt lat="48.872748" lon="2.242931">
        <ele>29.055853</ele>
        <time>2025-01-15T10:46:45.404Z</time>
      </trkpt>
      <trkpt lat="48.872942" lon="2.243062">
        <ele>29.015794</ele>
        <time>2025-01-15T10:46:50.538Z</time>
      </trkpt>
      <trkpt lat="48.873526" lon="2.243591">
        <ele>28.857601</ele>
        <time>2025-01-15T10:47:06.807Z</time>
      </trkpt>
      <trkpt lat="48.874665" lon="2.244825">
        <ele>28.584372</ele>
        <time>2025-01-15T10:47:40.277Z</time>
      </trkpt>
      <trkpt lat="48.875272" lon="2.245361">
        <ele>28.501462</ele>
        <time>2025-01-15T10:47:57.429Z</time>
      </trkpt>
      <trkpt lat="48.875317" lon="2.245480">
        <ele>28.490798</ele>
        <time>2025-01-15T10:47:59.683Z</time>
      </trkpt>
      <trkpt lat="48.875338" lon="2.245534">
        <ele>28.485925</ele>
        <time>2025-01-15T10:48:04.757Z</time>
      </trkpt>
      <trkpt lat="48.875358" lon="2.245589">
        <ele>28.481043</ele>
        <time>2025-01-15T10:48:05.813Z</time>
      </trkpt>
      <trkpt lat="48.875214" lon="2.245499">
        <ele>28.462653</ele>
        <time>2025-01-15T10:48:09.391Z</time>
      </trkpt>
      <trkpt lat="48.874745" lon="2.245283">
        <ele>28.446752</ele>
        <time>2025-01-15T10:48:20.357Z</time>
      </trkpt>
      <trkpt lat="48.874447" lon="2.245029">
        <ele>28.487098</ele>
        <time>2025-01-15T10:48:27.757Z</time>
      </trkpt>
      <trkpt lat="48.874308" lon="2.244901">
        <ele>28.506290</ele>
        <time>2025-01-15T10:48:31.372Z</time>
      </trkpt>
      <trkpt lat="48.874281" lon="2.244876">
        <ele>28.510023</ele>
        <time>2025-01-15T10:48:32.081Z</time>
      </trkpt>
      <trkpt lat="48.874120" lon="2.244725">
        <ele>28.532364</ele>
        <time>2025-01-15T10:48:36.417Z</time>
      </trkpt>
      <trkpt lat="48.874169" lon="2.244918">
        <ele>28.548433</ele>
        <time>2025-01-15T10:48:39.512Z</time>
      </trkpt>
      <trkpt lat="48.874245" lon="2.245243">
        <ele>28.575225</ele>
        <time>2025-01-15T10:48:44.632Z</time>
      </trkpt>
      <trkpt lat="48.874289" lon="2.245649">
        <ele>28.607187</ele>
        <time>2025-01-15T10:48:50.755Z</time>
      </trkpt>
      <trkpt lat="48.874282" lon="2.246090">
        <ele>28.678140</ele>
        <time>2025-01-15T10:48:57.454Z</time>
      </trkpt>
      <trkpt lat="48.874196" lon="2.247094">
        <ele>29.638741</ele>
        <time>2025-01-15T10:49:14.542Z</time>
      </trkpt>
      <trkpt lat="48.874203" lon="2.247532">
        <ele>30.054422</ele>
        <time>2025-01-15T10:49:22.990Z</time>
      </trkpt>
      <trkpt lat="48.874325" lon="2.248324">
        <ele>30.826174</ele>
        <time>2025-01-15T10:49:40.089Z</time>
      </trkpt>
      <trkpt lat="48.874298" lon="2.248435">
        <ele>30.938458</ele>
        <time>2025-01-15T10:49:42.837Z</time>
      </trkpt>
      <trkpt lat="48.874268" lon="2.248561">
        <ele>31.065594</ele>
        <time>2025-01-15T10:49:45.970Z</time>
      </trkpt>
      <trkpt lat="48.874394" lon="2.248684">
        <ele>31.313384</ele>
        <time>2025-01-15T10:49:51.232Z</time>
      </trkpt>
      <trkpt lat="48.874438" lon="2.248911">
        <ele>31.684075</ele>
        <time>2025-01-15T10:49:56.910Z</time>
      </trkpt>
      <trkpt lat="48.874507" lon="2.249271">
        <ele>32.271433</ele>
        <time>2025-01-15T10:50:06.021Z</time>
      </trkpt>
      <trkpt lat="48.874506" lon="2.249577">
        <ele>32.750755</ele>
        <time>2025-01-15T10:50:13.286Z</time>
      </trkpt>
      <trkpt lat="48.874443" lon="2.249958">
        <ele>33.366123</ele>
        <time>2025-01-15T10:50:22.610Z</time>
      </trkpt>
      <trkpt lat="48.873882" lon="2.251044">
        <ele>35.520832</ele>
        <time>2025-01-15T10:50:53.816Z</time>
      </trkpt>
      <trkpt lat="48.873854" lon="2.251101">
        <ele>35.559634</ele>
        <time>2025-01-15T10:50:55.223Z</time>
      </trkpt>
      <trkpt lat="48.873709" lon="2.251578">
        <ele>35.846238</ele>
        <time>2025-01-15T10:51:05.294Z</time>
      </trkpt>
      <trkpt lat="48.873607" lon="2.252159">
        <ele>36.174216</ele>
        <time>2025-01-15T10:51:15.822Z</time>
      </trkpt>
      <trkpt lat="48.873578" lon="2.252757">
        <ele>36.501259</ele>
        <time>2025-01-15T10:51:25.714Z</time>
      </trkpt>
      <trkpt lat="48.873584" lon="2.253372">
        <ele>36.836724</ele>
        <time>2025-01-15T10:51:35.535Z</time>
      </trkpt>
      <trkpt lat="48.873627" lon="2.253797">
        <ele>37.011415</ele>
        <time>2025-01-15T10:51:41.908Z</time>
      </trkpt>
      <trkpt lat="48.873691" lon="2.254154">
        <ele>37.022665</ele>
        <time>2025-01-15T10:51:47.247Z</time>
      </trkpt>
      <trkpt lat="48.873768" lon="2.254483">
        <ele>37.033283</ele>
        <time>2025-01-15T10:51:52.258Z</time>
      </trkpt>
      <trkpt lat="48.873812" lon="2.254809">
        <ele>37.043401</ele>
        <time>2025-01-15T10:51:57.053Z</time>
      </trkpt>
      <trkpt lat="48.873832" lon="2.254923">
        <ele>37.046988</ele>
        <time>2025-01-15T10:51:58.776Z</time>
      </trkpt>
      <trkpt lat="48.873856" lon="2.255054">
        <ele>37.051123</ele>
        <time>2025-01-15T10:52:00.786Z</time>
      </trkpt>
      <trkpt lat="48.873973" lon="2.255204">
        <ele>37.058198</ele>
        <time>2025-01-15T10:52:04.241Z</time>
      </trkpt>
      <trkpt lat="48.873983" lon="2.255264">
        <ele>37.060080</ele>
        <time>2025-01-15T10:52:05.173Z</time>
      </trkpt>
      <trkpt lat="48.873994" lon="2.255296">
        <ele>37.061177</ele>
        <time>2025-01-15T10:52:05.708Z</time>
      </trkpt>
      <trkpt lat="48.874038" lon="2.255538">
        <ele>37.068811</ele>
        <time>2025-01-15T10:52:09.509Z</time>
      </trkpt>
      <trkpt lat="48.874116" lon="2.255750">
        <ele>37.076197</ele>
        <time>2025-01-15T10:52:13.202Z</time>
      </trkpt>
      <trkpt lat="48.874204" lon="2.256046">
        <ele>37.086073</ele>
        <time>2025-01-15T10:52:18.099Z</time>
      </trkpt>
      <trkpt lat="48.874313" lon="2.256015">
        <ele>37.091028</ele>
        <time>2025-01-15T10:52:20.634Z</time>
      </trkpt>
      <trkpt lat="48.874664" lon="2.256194">
        <ele>37.091028</ele>
        <time>2025-01-15T10:52:28.992Z</time>
      </trkpt>
      <trkpt lat="48.874854" lon="2.256291">
        <ele>37.091028</ele>
        <time>2025-01-15T10:52:33.643Z</time>
      </trkpt>
      <trkpt lat="48.875445" lon="2.256453">
        <ele>37.091028</ele>
        <time>2025-01-15T10:52:46.909Z</time>
      </trkpt>
      <trkpt lat="48.875438" lon="2.256587">
        <ele>37.091028</ele>
        <time>2025-01-15T10:52:53.069Z</time>
      </trkpt>
      <trkpt lat="48.875472" lon="2.256842">
        <ele>37.091028</ele>
        <time>2025-01-15T10:53:04.958Z</time>
      </trkpt>
      <trkpt lat="48.875506" lon="2.256941">
        <ele>37.091028</ele>
        <time>2025-01-15T10:53:10.044Z</time>
      </trkpt>
      <trkpt lat="48.875564" lon="2.257109">
        <ele>37.091028</ele>
        <time>2025-01-15T10:53:18.718Z</time>
      </trkpt>
      <trkpt lat="48.875510" lon="2.257347">
        <ele>37.091028</ele>
        <time>2025-01-15T10:53:30.227Z</time>
      </trkpt>
      <trkpt lat="48.875499" lon="2.257501">
        <ele>37.091028</ele>
        <time>2025-01-15T10:53:37.306Z</time>
      </trkpt>
    </trkseg>
  </trk>
</gpx>